Buoy 48507

sailwx.info

Track history (hours):
 
Tides and Currents Weather Stations Pressure Air Temp Water Temp Dewpoint Dewpoint Depression Visibility Wind Speed Wind Dir Waves Ship Positions

Drifting buoy 48507

Last reported at 2018-Jun-23 17:10 UTC. Time now 2018-Jun-23 17:32 UTC.
Position N 70°28' W 102°18'.

Barometer 1011.3 mb
Air temperature 8.7 ° C

Date/timePositionNaut miles runAvg speedWind from/ knotsBaromVisibWave heightAir tempDewpointWater temp
2018-Jun-23 17:10N 70°28' W 102°18'0 0.0 1011.3 8.7
2018-Jun-23 17:00N 70°28' W 102°18'0 0.0 1011.6 8.7
2018-Jun-23 16:20N 70°28' W 102°18'1 4.3 1011.8 7.8
2018-Jun-23 16:10N 70°28' W 102°17'0 0.0 1012.0 7.1
2018-Jun-23 16:00N 70°28' W 102°17'1 1.7 1012.0 7.1
2018-Jun-23 15:30N 70°28' W 102°19'0 1.2 1012.1 5.5
2018-Jun-23 15:20N 70°28' W 102°18'0 0.0 1012.1 5.1
2018-Jun-23 15:10N 70°28' W 102°18'0 1.2 1012.1 5.1
2018-Jun-23 15:00N 70°28' W 102°19'0 0.6 1012.2 4.8
2018-Jun-23 14:40N 70°28' W 102°18'0 0.0 1012.4 4.3
2018-Jun-23 14:30N 70°28' W 102°18'0 0.0 1012.5 4.2
2018-Jun-23 13:50N 70°28' W 102°18'0 0.0 1012.9 3.4
2018-Jun-23 13:40N 70°28' W 102°18'0 0.0 1012.9 3.4
2018-Jun-23 13:20N 70°28' W 102°18'0 1.2 1013.1 3.2
2018-Jun-23 13:10N 70°28' W 102°17'0 0.0 1013.1 3.2
2018-Jun-23 13:00N 70°28' W 102°17'1 3.8 1013.1 3.1
2018-Jun-23 12:50N 70°28' W 102°17'1 4.3 1013.2 3.0
2018-Jun-23 12:40N 70°28' W 102°18'0 0.0 1013.2 2.9
2018-Jun-23 12:10N 70°28' W 102°18'0 0.0 1013.3 2.9
2018-Jun-23 12:00N 70°28' W 102°18'0 0.0 1013.3 2.9
2018-Jun-23 11:40N 70°28' W 102°18'0 0.0 1013.6 2.5
2018-Jun-23 11:20N 70°28' W 102°18'0 0.0 1013.7 2.3
2018-Jun-23 11:10N 70°28' W 102°18'0 0.0 1013.7 2.3
2018-Jun-23 11:00N 70°28' W 102°18'0 0.0 1013.7 2.2
2018-Jun-23 10:00N 70°28' W 102°18'0 0.0 1014.2 1.7
2018-Jun-23 09:30N 70°28' W 102°18'0 0.0 1014.3 1.3
2018-Jun-23 08:30N 70°28' W 102°18'0 0.0 1014.7 1.2
2018-Jun-23 08:20N 70°28' W 102°18'0 0.0 1014.7 1.2
2018-Jun-23 07:50N 70°28' W 102°18'0 0.0 1014.6 1.3
2018-Jun-23 07:20N 70°28' W 102°18'0 0.0 1014.8 1.2
2018-Jun-23 06:50N 70°28' W 102°18'0 1.2 1015.0 1.2
2018-Jun-23 06:40N 70°28' W 102°17'0 0.0 1015.0 1.2
2018-Jun-23 05:40N 70°28' W 102°17'0 0.4 1015.2 0.1
2018-Jun-23 05:10N 70°28' W 102°18'0 1.2 1015.4 0.2
2018-Jun-23 05:00N 70°28' W 102°17'1 0.9 1015.4 0.2
2018-Jun-23 04:10N 70°28' W 102°19'0 0.0 1015.8 1.1
2018-Jun-23 04:00N 70°28' W 102°19'0 0.0 1015.8 1.1
2018-Jun-23 03:50N 70°28' W 102°19'1 1.9 1015.9 1.3
2018-Jun-23 03:30N 70°28' W 102°18'0 1.2 1016.1 2.1
2018-Jun-23 03:20N 70°28' W 102°17'1 5.1 1016.1 2.8
2018-Jun-23 03:10N 70°28' W 102°19'0 0.0 1016.1 2.8
2018-Jun-23 02:30N 70°28' W 102°19'0 0.0 1016.5 3.7
2018-Jun-23 02:20N 70°28' W 102°19'0 0.0 1016.5 3.5
2018-Jun-23 02:10N 70°28' W 102°19'1 2.5 1016.5 3.4
2018-Jun-23 01:50N 70°28' W 102°17'0 1.2 1016.6 5.6
2018-Jun-23 01:40N 70°28' W 102°18'0 0.0 1016.6 6.2
2018-Jun-23 01:30N 70°28' W 102°18'1 0.9 6.2
2018-Jun-23 00:50N 70°28' W 102°18'1 3.8 1016.6 6.2
2018-Jun-23 00:40N 70°28' W 102°17'0 1.2 1016.6 6.2
2018-Jun-23 00:30N 70°28' W 102°18'0 0.0 1016.8 6.9
2018-Jun-23 00:10N 70°28' W 102°18'1 3.8 1016.8 8.7
2018-Jun-23 00:00N 70°28' W 102°19'1 3.8 1016.8 8.4
2018-Jun-22 23:50N 70°28' W 102°18'0 0.0 1016.8 8.4
2018-Jun-22 23:10N 70°28' W 102°18'0 0.0 1016.8 8.4
2018-Jun-22 23:00N 70°28' W 102°18'0 0.0 1016.8 7.6
2018-Jun-22 22:30N 70°28' W 102°18'1 3.6 1016.6 6.9
2018-Jun-22 22:20N 70°28' W 102°18'1 3.6 1016.6 5.5
2018-Jun-22 22:10N 70°28' W 102°18'0 0.3 1016.6 5.5
2018-Jun-22 21:30N 70°28' W 102°17'0 1.2 1016.8 5.4
2018-Jun-22 21:20N 70°28' W 102°18'0 0.0 1016.8 5.4
2018-Jun-22 20:50N 70°28' W 102°18'0 0.0 1016.8 7.1
2018-Jun-22 20:40N 70°28' W 102°18'0 0.0 1016.8 6.4
2018-Jun-22 19:50N 70°28' W 102°18'0 0.0 5.6
2018-Jun-22 19:40N 70°28' W 102°18'0 0.0 1016.6 5.6
2018-Jun-22 19:10N 70°28' W 102°18'0 0.0 1016.5 6.0
2018-Jun-22 19:00N 70°28' W 102°18'0 0.0 1016.5 5.9
2018-Jun-22 18:10N 70°28' W 102°18'0 0.0 1016.6 2.3
2018-Jun-22 18:00N 70°28' W 102°18'0 0.0 1016.6 2.3
2018-Jun-22 17:30N 70°28' W 102°18'0 1.2 1016.5 1.4
2018-Jun-22 17:20N 70°28' W 102°19'0 0.2 1016.3 1.5
2018-Jun-22 16:30N 70°28' W 102°18'0 0.0 1016.1 2.6
2018-Jun-22 16:20N 70°28' W 102°18'0 0.0 1016.1 2.6
2018-Jun-22 15:50N 70°28' W 102°18'0 2.4 1016.1 4.3
2018-Jun-22 15:40N 70°28' W 102°19'0 1.2 1016.1 3.7
2018-Jun-22 15:30N 70°28' W 102°19'0 0.3 1016.1 3.7
2018-Jun-22 14:50N 70°28' W 102°18'0 0.0 1016.2 1.9
2018-Jun-22 14:40N 70°28' W 102°18'0 0.0 1016.2 1.9
2018-Jun-22 14:00N 70°28' W 102°18'0 0.0 1016.3 1.6
2018-Jun-22 13:50N 70°28' W 102°18'0 0.3 1016.3 1.4
2018-Jun-22 13:10N 70°28' W 102°17'0 1.2 1016.2 0.4
2018-Jun-22 13:00N 70°28' W 102°18'0 0.0 1016.2 0.2
2018-Jun-22 12:50N 70°28' W 102°18'0 0.0 1016.2
2018-Jun-22 12:20N 70°28' W 102°18'0 0.0 1015.9 0.3
2018-Jun-22 12:10N 70°28' W 102°18'0 0.0 1015.8 0.4
2018-Jun-22 12:00N 70°28' W 102°18'0 0.0 0.4
2018-Jun-22 11:30N 70°28' W 102°18'0 1.2 1015.8 0.8
2018-Jun-22 11:20N 70°28' W 102°19'0 0.2 1015.8 0.7
2018-Jun-22 10:30N 70°28' W 102°18'0 0.0 1015.7 0.5
2018-Jun-22 09:50N 70°28' W 102°18'0 0.0 1015.4 0.6
2018-Jun-22 09:40N 70°28' W 102°18'0 0.0 1015.4 0.6
2018-Jun-22 09:00N 70°28' W 102°18'0 0.0 1015.2 0.5
2018-Jun-22 08:50N 70°28' W 102°18'0 0.2 1015.2 0.5
2018-Jun-22 08:00N 70°28' W 102°17'0 0.6 1015.2 0.3
2018-Jun-22 07:40N 70°28' W 102°18'0 0.0 1015.2 0.2
2018-Jun-22 07:20N 70°28' W 102°18'0 0.0 1015.2 -0.0
2018-Jun-22 07:10N 70°28' W 102°18'0 0.0 1015.2 -0.0
2018-Jun-22 06:00N 70°28' W 102°18'0 0.0 1014.8 0.1
2018-Jun-22 05:40N 70°28' W 102°18'0 0.0 1014.8 -0.1
2018-Jun-22 05:30N 70°28' W 102°18'0 0.0 1014.8 -0.1
2018-Jun-22 05:20N 70°28' W 102°18'0 0.0 1014.8 -0.1
2018-Jun-22 04:30N 70°28' W 102°18'0 0.0 1014.6 -0.0
2018-Jun-22 04:20N 70°28' W 102°18'0 0.0 1014.6 -0.0
2018-Jun-22 04:00N 70°28' W 102°18'0 0.0 1014.6 0.1
2018-Jun-22 03:50N 70°28' W 102°18'0 0.0 1014.6 0.1
2018-Jun-22 03:40N 70°28' W 102°18'0 0.0 1014.6 0.4
2018-Jun-22 03:30N 70°28' W 102°18'0 0.0 1014.6 0.4
2018-Jun-22 02:50N 70°28' W 102°18'0 1.2 1014.8 0.4
2018-Jun-22 02:40N 70°28' W 102°19'0 0.0 1014.8 0.3
2018-Jun-22 02:30N 70°28' W 102°19'0 1.2 1014.8 0.4
2018-Jun-22 02:20N 70°28' W 102°18'0 1.2 1014.8 0.6
2018-Jun-22 02:10N 70°28' W 102°19'0 1.2 1014.8 1.1
2018-Jun-22 02:00N 70°28' W 102°18'0 1.2 1015.0 2.4
2018-Jun-22 01:50N 70°28' W 102°17'0 0.0 1015.0 2.4
2018-Jun-22 01:10N 70°28' W 102°17'0 1.2 1015.1 3.1
2018-Jun-22 01:00N 70°28' W 102°18'0 0.0 1015.1 3.1
2018-Jun-22 00:50N 70°28' W 102°18'0 0.0 1015.0 3.3
2018-Jun-22 00:40N 70°28' W 102°18'0 0.0 1015.0 3.4
2018-Jun-22 00:30N 70°28' W 102°18'1 3.8 1015.0 3.1
2018-Jun-22 00:20N 70°28' W 102°19'1 3.8 1014.8 2.6
2018-Jun-22 00:10N 70°28' W 102°18'0 0.0 1014.8 2.6
2018-Jun-21 23:30N 70°28' W 102°18'1 4.8 1014.8 3.7
2018-Jun-21 23:20N 70°28' W 102°16'1 4.8 1014.7 3.6
2018-Jun-21 23:10N 70°28' W 102°18'0 0.0 1014.7 3.6
2018-Jun-21 23:00N 70°28' W 102°18'0 0.0 1014.8 3.8
2018-Jun-21 22:50N 70°28' W 102°18'0 0.0 1014.8 3.5
2018-Jun-21 22:40N 70°28' W 102°18'0 0.0 1014.8 3.3
2018-Jun-21 22:30N 70°28' W 102°18'0 0.0 1014.8 2.8
2018-Jun-21 21:50N 70°28' W 102°18'0 1.2 1014.8 2.3
2018-Jun-21 21:40N 70°28' W 102°17'0 1.2 1014.8 2.5
2018-Jun-21 21:30N 70°28' W 102°18'0 0.0 1015.0 2.5
2018-Jun-21 21:10N 70°28' W 102°18'0 0.0 1015.0 2.8
2018-Jun-21 21:00N 70°28' W 102°18'0 0.0 1015.0 2.8
2018-Jun-21 20:50N 70°28' W 102°18'0 0.0 1015.0
2018-Jun-21 20:00N 70°28' W 102°18'0 0.0 1014.8 2.6
2018-Jun-21 19:50N 70°28' W 102°18'0 0.0 1014.8 2.6
2018-Jun-21 19:30N 70°28' W 102°18'0 0.0 1015.0 2.6
2018-Jun-21 19:20N 70°28' W 102°18'0 1.2 1015.0 2.5
2018-Jun-21 19:10N 70°28' W 102°17'0 0.3 1015.0 2.5
2018-Jun-21 18:30N 70°28' W 102°18'0 0.0 1014.7 2.3
2018-Jun-21 18:20N 70°28' W 102°18'0 0.0 1014.7
2018-Jun-21 18:10N 70°28' W 102°18'0 0.0 1014.7 2.4
2018-Jun-21 17:50N 70°28' W 102°18'0 0.0 1014.6 1.9
2018-Jun-21 17:40N 70°28' W 102°18'0 0.0 1014.4 1.7
2018-Jun-21 17:30N 70°28' W 102°18'0 0.0 1014.4 1.7
2018-Jun-21 16:50N 70°28' W 102°18'0 0.0 1014.6 0.8
2018-Jun-21 16:40N 70°28' W 102°18'0 0.0 1014.6 0.8
2018-Jun-21 16:30N 70°28' W 102°18'0 0.0 1014.6 0.6
2018-Jun-21 16:10N 70°28' W 102°18'0 0.0 1014.4 0.9
2018-Jun-21 16:00N 70°28' W 102°18'0 1.2 1014.3 1.0
2018-Jun-21 15:50N 70°28' W 102°19'0 0.4 1014.3 1.0
2018-Jun-21 15:20N 70°28' W 102°18'0 0.0 1014.3 1.1
2018-Jun-21 15:10N 70°28' W 102°18'0 0.0 1014.3 1.1
2018-Jun-21 15:00N 70°28' W 102°18'0 0.0 1014.2 1.3
2018-Jun-21 14:50N 70°28' W 102°18'0 0.0 1014.2 1.3
2018-Jun-21 14:20N 70°28' W 102°18'0 0.0 1014.0 0.3
2018-Jun-21 14:10N 70°28' W 102°18'0 0.2 1014.0 0.3
2018-Jun-21 13:20N 70°28' W 102°17'1 4.3 1013.7 0.3
2018-Jun-21 13:10N 70°28' W 102°16'1 2.5 1013.9 0.2
2018-Jun-21 12:50N 70°28' W 102°18'0 0.0 1013.7 0.1
2018-Jun-21 12:40N 70°28' W 102°18'0 0.0 1013.6 0.1
2018-Jun-21 12:30N 70°28' W 102°18'0 0.0 1013.6 0.1
2018-Jun-21 11:50N 70°28' W 102°18'0 0.0 1013.5 -0.0
2018-Jun-21 11:40N 70°28' W 102°18'0 0.0 1013.3 -0.0
2018-Jun-21 11:30N 70°28' W 102°18'0 0.0 1013.3 -0.0
2018-Jun-21 11:10N 70°28' W 102°18'0 1.2 1013.2 -0.2
2018-Jun-21 11:00N 70°28' W 102°19'0 0.0 1013.2 -0.2
2018-Jun-21 10:10N 70°28' W 102°19'0 1.2 1012.5 -0.2
2018-Jun-21 10:00N 70°28' W 102°18'0 0.0 1012.5 -0.2
2018-Jun-21 09:50N 70°28' W 102°18'0 0.0 1012.5 -0.2
2018-Jun-21 09:30N 70°28' W 102°18'0 0.0 1012.2 -0.3
2018-Jun-21 09:20N 70°28' W 102°18'0 0.0 1012.2 -0.3
2018-Jun-21 08:10N 70°28' W 102°18'0 0.0 1011.7 -0.0
2018-Jun-21 07:50N 70°28' W 102°18'0 0.0 1011.6 -0.0
2018-Jun-21 07:40N 70°28' W 102°18'0 0.0 1011.6 -0.0
2018-Jun-21 06:20N 70°28' W 102°18'0 0.0 1010.7 0.1
2018-Jun-21 06:10N 70°28' W 102°18'0 0.0 1010.7 0.1
2018-Jun-21 06:00N 70°28' W 102°18'0 0.0 1010.7 0.1
2018-Jun-21 05:40N 70°28' W 102°18'0 0.0 1010.5 0.2
2018-Jun-21 05:30N 70°28' W 102°18'0 0.0 1010.5 0.2
2018-Jun-21 05:00N 70°28' W 102°18'0 0.0 1010.0 0.3
2018-Jun-21 04:40N 70°28' W 102°18'0 0.0 1010.0 0.3
2018-Jun-21 04:30N 70°28' W 102°18'0 0.0 1009.9 0.3
2018-Jun-21 04:20N 70°28' W 102°18'0 0.0 1009.9 0.3
2018-Jun-21 04:00N 70°28' W 102°18'0 0.0 1009.5 0.4
2018-Jun-21 03:50N 70°28' W 102°18'0 1.2 1009.5 0.4
2018-Jun-21 03:40N 70°28' W 102°17'0 0.0 1009.4 0.4
2018-Jun-21 03:10N 70°28' W 102°17'0 1.2 1009.2 0.9
2018-Jun-21 03:00N 70°28' W 102°18'0 0.0 1009.2 1.0
2018-Jun-21 02:50N 70°28' W 102°18'0 0.0 1009.2 1.1
2018-Jun-21 02:40N 70°28' W 102°18'0 0.0 1009.2 1.2
2018-Jun-21 02:20N 70°28' W 102°18'0 0.0 1009.1 1.4
2018-Jun-21 02:10N 70°28' W 102°18'0 1.2 1009.1 1.4
2018-Jun-21 02:00N 70°28' W 102°17'0 0.4 1009.0 1.4
2018-Jun-21 01:30N 70°28' W 102°18'0 0.0
2018-Jun-21 01:20N 70°28' W 102°18'0 0.0 1008.7 1.6
2018-Jun-21 01:10N 70°28' W 102°18'0 0.0 1008.7 1.6
2018-Jun-21 01:00N 70°28' W 102°18'1 3.5 1008.5 1.6
2018-Jun-21 00:40N 70°29' W 102°15'1 7.0 1008.4 1.5
2018-Jun-21 00:30N 70°28' W 102°18'0 1.2 1008.4 1.7
2018-Jun-21 00:20N 70°28' W 102°17'0 0.0 1.7
2018-Jun-21 00:00N 70°28' W 102°17'1 3.8 1008.1 1.7
2018-Jun-20 23:50N 70°28' W 102°18'0 0.0 1008.1 1.7
2018-Jun-20 23:40N 70°28' W 102°18'0 0.0 1008.0 1.6
2018-Jun-20 23:30N 70°28' W 102°18'1 3.6 1008.0 1.6
2018-Jun-20 23:20N 70°28' W 102°18'0 0.0 1008.0 1.6
2018-Jun-20 23:00N 70°28' W 102°18'0 0.0 1007.9 1.6
2018-Jun-20 22:50N 70°28' W 102°18'0 0.0 1007.7 1.5
2018-Jun-20 22:40N 70°28' W 102°18'0 0.0 1007.7 1.5
2018-Jun-20 22:20N 70°28' W 102°18'0 1.2 1007.6 1.7
2018-Jun-20 22:10N 70°28' W 102°17'0 0.0 1007.6
2018-Jun-20 22:00N 70°28' W 102°17'0 0.0 1007.4 1.7
2018-Jun-20 21:50N 70°28' W 102°17'0 0.0 1007.6 1.7
2018-Jun-20 21:40N 70°28' W 102°17'0 0.0 1007.6 1.7
2018-Jun-20 21:30N 70°28' W 102°17'0 1.2 1007.2 1.7
2018-Jun-20 21:20N 70°28' W 102°18'0 0.0 1007.2 1.6
2018-Jun-20 21:10N 70°28' W 102°18'0 0.0 1007.2 1.6
2018-Jun-20 21:00N 70°28' W 102°18'0 0.0 1007.2 1.6
2018-Jun-20 20:40N 70°28' W 102°18'0 0.0 1007.0 1.5
2018-Jun-20 20:30N 70°28' W 102°18'0 0.0 1007.0 1.5
2018-Jun-20 20:20N 70°28' W 102°18'0 0.0 1006.9 1.8
2018-Jun-20 20:10N 70°28' W 102°18'0 0.0 1006.9 1.8
2018-Jun-20 20:00N 70°28' W 102°18'0 0.0 1006.8 1.8
2018-Jun-20 19:50N 70°28' W 102°18'0 0.0 1006.6 1.6
2018-Jun-20 19:40N 70°28' W 102°18'0 0.0 1006.6 1.6
2018-Jun-20 19:30N 70°28' W 102°18'0 0.0 1006.6 1.5
2018-Jun-20 19:20N 70°28' W 102°18'0 0.0 1006.6 1.5
2018-Jun-20 19:00N 70°28' W 102°18'0 0.0 1006.8 1.4
2018-Jun-20 18:50N 70°28' W 102°18'0 0.0 1006.8 1.4
2018-Jun-20 18:30N 70°28' W 102°18'0 0.0 1006.6 1.2
2018-Jun-20 18:20N 70°28' W 102°18'0 0.0 1006.6 1.2
2018-Jun-20 18:10N 70°28' W 102°18'0 0.0 1006.6 1.6
2018-Jun-20 18:00N 70°28' W 102°18'0 0.0 1006.5 1.4
2018-Jun-20 17:50N 70°28' W 102°18'1 3.8 1006.4 1.8
2018-Jun-20 17:40N 70°28' W 102°17'1 1.9 1006.4 1.8
2018-Jun-20 17:20N 70°28' W 102°18'0 0.0 1006.2 1.9
2018-Jun-20 17:10N 70°28' W 102°18'0 0.6 1006.2 1.9
2018-Jun-20 16:50N 70°28' W 102°17'0 0.0 1006.1 1.6
2018-Jun-20 16:40N 70°28' W 102°17'0 1.2 1006.1
2018-Jun-20 16:30N 70°28' W 102°18'0 0.0 1005.9 1.8
2018-Jun-20 16:20N 70°28' W 102°18'0 0.0 1005.8 1.8
2018-Jun-20 16:10N 70°28' W 102°18'0 0.0 1005.8 1.8
2018-Jun-20 16:00N 70°28' W 102°18'0 0.0 1005.8 1.8
2018-Jun-20 15:40N 70°28' W 102°18'0 0.0 1005.7 1.4
2018-Jun-20 15:30N 70°28' W 102°18'0 0.0 1005.7 1.4
2018-Jun-20 15:10N 70°28' W 102°18'0 0.0 1005.5 1.0
2018-Jun-20 15:00N 70°28' W 102°18'0 0.0 1005.5 1.1
2018-Jun-20 14:50N 70°28' W 102°18'0 0.0 1005.5 1.1
2018-Jun-20 14:40N 70°28' W 102°18'0 0.0 1005.3 1.1
2018-Jun-20 14:30N 70°28' W 102°18'0 0.0 1005.4 1.1
2018-Jun-20 14:20N 70°28' W 102°18'0 0.0 1005.4 1.1
2018-Jun-20 14:00N 70°28' W 102°18'0 0.0 1005.1 0.8
2018-Jun-20 13:30N 70°28' W 102°18'0 0.0 1005.0 1.1
2018-Jun-20 13:20N 70°28' W 102°18'0 0.0 1005.0 1.1
2018-Jun-20 13:10N 70°28' W 102°18'0 0.0
2018-Jun-20 12:40N 70°28' W 102°18'0 0.0 1004.7 1.3
2018-Jun-20 12:20N 70°28' W 102°18'0 0.0 1004.4 1.2
2018-Jun-20 12:10N 70°28' W 102°18'0 0.6 1004.4 1.2
2018-Jun-20 11:50N 70°28' W 102°19'0 0.0 1004.0 1.1
2018-Jun-20 11:40N 70°28' W 102°19'1 4.3 1004.0 1.1
2018-Jun-20 11:30N 70°28' W 102°17'0 0.0 1003.9 1.0
2018-Jun-20 11:00N 70°28' W 102°17'0 0.0 1003.1 0.9
2018-Jun-20 10:40N 70°28' W 102°17'0 0.0 1002.7 1.0
2018-Jun-20 10:30N 70°28' W 102°17'1 1.9 1002.7 1.0
2018-Jun-20 10:10N 70°28' W 102°18'0 0.0 1002.1 1.3
2018-Jun-20 10:00N 70°28' W 102°18'0 0.0 1002.1 1.3
2018-Jun-20 09:50N 70°28' W 102°18'0 0.2 1001.8 1.7
2018-Jun-20 08:30N 70°28' W 102°17'0 0.0 1001.4 1.4
2018-Jun-20 08:20N 70°28' W 102°17'0 1.2 1001.4 1.4
2018-Jun-20 08:10N 70°28' W 102°18'0 0.0 1001.4 1.1
2018-Jun-20 06:50N 70°28' W 102°18'0 0.0 1002.4 1.2
2018-Jun-20 06:40N 70°28' W 102°18'0 0.0 1002.4 1.2
2018-Jun-20 06:30N 70°28' W 102°18'0 0.0 1002.5 1.3
2018-Jun-20 06:00N 70°28' W 102°18'0 0.0 1003.1 1.4
2018-Jun-20 05:40N 70°28' W 102°18'0 0.0 1003.3 1.4
2018-Jun-20 05:20N 70°28' W 102°18'0 0.0 1003.6 1.5
2018-Jun-20 05:10N 70°28' W 102°18'0 0.0 1004.0 1.7
2018-Jun-20 05:00N 70°28' W 102°18'0 0.0 1004.0
2018-Jun-20 04:50N 70°28' W 102°18'0 0.0 1004.0 1.8
2018-Jun-20 04:20N 70°28' W 102°18'0 0.0 1004.6 1.7
2018-Jun-20 04:00N 70°28' W 102°18'0 0.0 1005.1 1.9
2018-Jun-20 03:30N 70°28' W 102°18'0 0.0 1005.4 1.9
2018-Jun-20 03:20N 70°28' W 102°18'0 0.0 1005.4 1.9
2018-Jun-20 03:10N 70°28' W 102°18'0 0.0 1005.5 1.9
2018-Jun-20 02:40N 70°28' W 102°18'0 0.0 1006.2 2.4
2018-Jun-20 02:20N 70°28' W 102°18'0 0.0 1006.5 2.7
2018-Jun-20 02:00N 70°28' W 102°18'0 0.0 1006.8 2.9
2018-Jun-20 01:50N 70°28' W 102°18'0 0.0 1006.8
2018-Jun-20 01:40N 70°28' W 102°18'0 0.0 1006.8 3.1
2018-Jun-20 01:30N 70°28' W 102°18'0 0.0 1007.2 3.2
2018-Jun-20 01:20N 70°28' W 102°18'0 0.6 1007.2 3.2
2018-Jun-20 01:00N 70°28' W 102°19'0 0.0 1007.4 3.3
2018-Jun-20 00:40N 70°28' W 102°19'0 2.4 1007.7 3.5
2018-Jun-20 00:30N 70°28' W 102°17'0 0.0 1007.7 3.5
2018-Jun-20 00:20N 70°28' W 102°17'0 0.6 1007.9 3.7
2018-Jun-20 00:00N 70°28' W 102°18'0 1.2 1008.0 3.7
2018-Jun-19 23:50N 70°28' W 102°17'0 1.2 1008.1 4.1
2018-Jun-19 23:40N 70°28' W 102°18'0 0.0 1008.1 4.1
2018-Jun-19 23:20N 70°28' W 102°18'0 0.0 1008.5 4.4
2018-Jun-19 23:00N 70°28' W 102°18'0 0.0 1008.7 4.8
2018-Jun-19 22:50N 70°28' W 102°18'0 0.0 1008.7 4.8
2018-Jun-19 22:40N 70°28' W 102°18'0 1.2 1008.8 4.9
2018-Jun-19 22:30N 70°28' W 102°17'0 0.0 1009.0 5.4
2018-Jun-19 22:20N 70°28' W 102°17'0 0.6 1009.1
2018-Jun-19 22:00N 70°28' W 102°18'0 0.0 1009.2 8.2
2018-Jun-19 21:50N 70°28' W 102°18'0 1.2 1009.4 8.5
2018-Jun-19 21:40N 70°28' W 102°17'0 0.0 1009.4 8.7
2018-Jun-19 21:20N 70°28' W 102°17'0 1.2 1009.5 8.2
2018-Jun-19 21:10N 70°28' W 102°18'0 0.0 1009.5 8.2
2018-Jun-19 21:00N 70°28' W 102°18'0 0.0 1009.6 8.2
2018-Jun-19 20:50N 70°28' W 102°18'0 0.0 1009.8 8.4
2018-Jun-19 20:40N 70°28' W 102°18'0 0.0 1009.8
2018-Jun-19 20:20N 70°28' W 102°18'0 0.0 1009.8 8.5
2018-Jun-19 20:10N 70°28' W 102°18'0 0.0 1009.9
2018-Jun-19 20:00N 70°28' W 102°18'0 0.0 1010.0 7.3
2018-Jun-19 19:40N 70°28' W 102°18'0 0.0 1010.0 7.7
2018-Jun-19 19:30N 70°28' W 102°18'0 0.0 1010.2 7.4
2018-Jun-19 19:20N 70°28' W 102°18'0 0.0 1010.2 7.5
2018-Jun-19 18:40N 70°28' W 102°18'0 0.0 1010.3 7.5
2018-Jun-19 18:30N 70°28' W 102°18'0 0.0 1010.3 7.5
2018-Jun-19 18:20N 70°28' W 102°18'0 0.0 1010.6 7.1
2018-Jun-19 18:00N 70°28' W 102°18'0 0.0 1010.7 6.7
2018-Jun-19 17:50N 70°28' W 102°18'0 0.2 1010.7 6.7
2018-Jun-19 17:00N 70°28' W 102°17'0 1.2 1011.0 6.5
2018-Jun-19 16:50N 70°28' W 102°18'0 0.0 1011.0
2018-Jun-19 16:40N 70°28' W 102°18'0 0.0
2018-Jun-19 16:20N 70°28' W 102°18'0 0.0 1011.1 6.5
2018-Jun-19 16:10N 70°28' W 102°18'0 0.0 1011.3 6.1
2018-Jun-19 16:00N 70°28' W 102°18'0 1.2 1011.4 5.9
2018-Jun-19 15:50N 70°28' W 102°17'0 1.2 1011.6
2018-Jun-19 15:30N 70°28' W 102°19'0 1.2 1011.7 6.8
2018-Jun-19 15:20N 70°28' W 102°18'0 0.0 1011.7 6.8
2018-Jun-19 15:00N 70°28' W 102°18'0 0.0 1012.0 6.2
2018-Jun-19 14:40N 70°28' W 102°18'0 0.0 1012.1 5.3
2018-Jun-19 14:30N 70°28' W 102°18'0 0.0 1012.1 5.3
2018-Jun-19 14:00N 70°28' W 102°18'0 0.0 1012.2
2018-Jun-19 13:50N 70°28' W 102°18'0 1.2 1012.4 5.3
2018-Jun-19 13:40N 70°28' W 102°17'0 0.0 1012.4 5.3
2018-Jun-19 13:00N 70°28' W 102°17'0 0.0 1012.9 3.2
2018-Jun-19 12:50N 70°28' W 102°17'0 1.2 1012.9 3.2
2018-Jun-19 12:40N 70°28' W 102°18'0 0.0 1012.9 2.8
2018-Jun-19 12:10N 70°28' W 102°18'0 1.2 1013.1 1.7
2018-Jun-19 12:00N 70°28' W 102°19'0 1.2 1013.1
2018-Jun-19 11:50N 70°28' W 102°18'0 0.3 1013.1 1.5
2018-Jun-19 11:10N 70°28' W 102°19'0 0.0 1012.9 1.0
2018-Jun-19 11:00N 70°28' W 102°19'0 0.4 1013.1 1.0
2018-Jun-19 10:30N 70°28' W 102°18'0 0.0 1013.1 0.4
2018-Jun-19 10:20N 70°28' W 102°18'0 0.0 1013.1 0.4
2018-Jun-19 10:10N 70°28' W 102°18'0 0.0 1013.1 0.4
2018-Jun-19 08:50N 70°28' W 102°18'0 1.2 1013.1 0.6
2018-Jun-19 08:40N 70°28' W 102°17'0 0.0 1013.1 0.6
2018-Jun-19 08:30N 70°28' W 102°17'1 0.5 1013.1 0.6
2018-Jun-19 07:10N 70°28' W 102°19'0 0.0 1013.1 0.5
2018-Jun-19 07:00N 70°28' W 102°19'1 1.4 1013.1 0.5
2018-Jun-19 06:30N 70°28' W 102°17'0 0.0 1013.1 0.7
2018-Jun-19 06:00N 70°28' W 102°17'0 1.2 1012.9
2018-Jun-19 05:50N 70°28' W 102°18'0 0.0 1012.9 0.7
2018-Jun-19 05:30N 70°28' W 102°18'0 0.0 1012.9 0.8
2018-Jun-19 05:20N 70°28' W 102°18'0 0.0 1012.9 0.8
2018-Jun-19 04:40N 70°28' W 102°18'1 1.3 1012.9 0.8
2018-Jun-19 04:10N 70°28' W 102°19'0 0.0 1012.8 1.0
2018-Jun-19 04:00N 70°28' W 102°19'1 3.8 1012.8 1.2
2018-Jun-19 03:50N 70°28' W 102°18'0 0.0 1012.8 1.3
2018-Jun-19 03:40N 70°28' W 102°18'0 0.0 1012.9 1.1
2018-Jun-19 03:10N 70°28' W 102°18'0 0.0 1013.1 1.3
2018-Jun-19 03:00N 70°28' W 102°18'0 0.0 1013.1 1.6
2018-Jun-19 02:30N 70°28' W 102°18'0 0.0 1013.1 2.4
2018-Jun-19 02:20N 70°28' W 102°18'0 0.0 1013.1 2.4
2018-Jun-19 02:10N 70°28' W 102°18'0 0.0
2018-Jun-19 02:00N 70°28' W 102°18'0 0.0 1012.9 2.6
2018-Jun-19 01:40N 70°28' W 102°18'0 0.0 1013.1 1.7
2018-Jun-19 01:30N 70°28' W 102°18'0 0.0 1012.9 1.6
2018-Jun-19 01:20N 70°28' W 102°18'0 0.0 1012.9 1.6
2018-Jun-19 00:50N 70°28' W 102°18'0 0.0 1013.1 1.7
2018-Jun-19 00:40N 70°28' W 102°18'0 0.0 1013.1 1.9
2018-Jun-19 00:30N 70°28' W 102°18'0 0.0 1013.1 1.9
2018-Jun-19 00:20N 70°28' W 102°18'0 0.0 1012.9 1.9
2018-Jun-19 00:00N 70°28' W 102°18'1 3.8 1012.9 2.1
2018-Jun-18 23:50N 70°28' W 102°17'1 3.8 1012.9 2.1
2018-Jun-18 23:40N 70°28' W 102°18'0 0.0 1012.9 2.0
2018-Jun-18 23:10N 70°28' W 102°18'0 1.2 1012.5 1.9
2018-Jun-18 23:00N 70°28' W 102°17'0 0.0 1012.5 1.9
2018-Jun-18 22:50N 70°28' W 102°17'0 1.2 1012.5 1.9
2018-Jun-18 22:40N 70°28' W 102°18'0 0.0 1012.4 2.0
2018-Jun-18 22:20N 70°28' W 102°18'0 1.2 1012.4 1.9
2018-Jun-18 22:10N 70°28' W 102°17'0 1.2 1012.2 2.1
2018-Jun-18 22:00N 70°28' W 102°18'0 0.0 1012.2 2.2
2018-Jun-18 21:30N 70°28' W 102°18'0 0.0 1012.1 2.6
2018-Jun-18 21:10N 70°28' W 102°18'0 0.0 1012.0
2018-Jun-18 21:00N 70°28' W 102°18'0 0.0 1012.0 2.7
2018-Jun-18 20:40N 70°28' W 102°18'0 0.0 1011.8 2.9
2018-Jun-18 20:30N 70°28' W 102°18'0 0.0 1011.8 3.1
2018-Jun-18 20:20N 70°28' W 102°18'0 0.0 1011.8
2018-Jun-18 19:50N 70°28' W 102°18'0 0.0 1011.7 3.0
2018-Jun-18 19:40N 70°28' W 102°18'0 0.0 1011.7 2.8
2018-Jun-18 19:00N 70°28' W 102°18'0 0.0 1011.3 2.4
2018-Jun-18 18:50N 70°28' W 102°18'0 0.0 1011.3 2.4
2018-Jun-18 18:40N 70°28' W 102°18'1 1.3 2.4
2018-Jun-18 18:10N 70°28' W 102°17'0 0.0 1010.7 2.5
2018-Jun-18 18:00N 70°28' W 102°17'1 4.3 1010.7 2.5
2018-Jun-18 17:50N 70°28' W 102°19'0 0.3 1010.7 2.4
2018-Jun-18 17:10N 70°28' W 102°18'0 0.0 1010.5 2.0
2018-Jun-18 17:00N 70°28' W 102°18'0 0.4 1010.5 2.0
2018-Jun-18 16:30N 70°28' W 102°19'0 0.0 1010.2 1.6
2018-Jun-18 16:20N 70°28' W 102°19'0 0.0 1010.0 1.6
2018-Jun-18 16:00N 70°28' W 102°19'0 0.6 1009.9 1.6
2018-Jun-18 15:40N 70°28' W 102°18'0 0.0 1010.0 1.1
2018-Jun-18 15:30N 70°28' W 102°18'0 0.0 1010.0 1.1
2018-Jun-18 15:20N 70°28' W 102°18'0 0.0 1009.9
2018-Jun-18 14:50N 70°28' W 102°18'0 0.0 1009.6 0.9
2018-Jun-18 14:40N 70°28' W 102°18'0 0.6 1009.6 0.9
2018-Jun-18 14:20N 70°28' W 102°17'0 1.2 1009.6 0.7
2018-Jun-18 14:10N 70°28' W 102°18'0 0.0 1009.6 0.7
2018-Jun-18 14:00N 70°28' W 102°18'0 1.2 1009.5 0.8
2018-Jun-18 13:50N 70°28' W 102°17'0 1.2 1009.5 0.8
2018-Jun-18 13:40N 70°28' W 102°18'0 0.0 1009.5
2018-Jun-18 13:10N 70°28' W 102°18'0 0.0 1009.2 0.7
2018-Jun-18 13:00N 70°28' W 102°18'0 0.0 1009.2 0.7
2018-Jun-18 12:40N 70°28' W 102°18'0 0.0 1009.1 0.6
2018-Jun-18 12:30N 70°28' W 102°18'0 0.0 1009.1 0.6
2018-Jun-18 12:20N 70°28' W 102°18'0 0.0 1009.1 0.6
2018-Jun-18 12:10N 70°28' W 102°18'1 0.9 1009.1 0.6
2018-Jun-18 11:20N 70°28' W 102°19'0 0.0 1008.8 0.7
2018-Jun-18 11:00N 70°28' W 102°19'1 4.3 1008.7 0.7
2018-Jun-18 10:50N 70°28' W 102°18'0 0.0 1008.7 0.8
2018-Jun-18 10:30N 70°28' W 102°18'0 0.0 1008.5 0.8
2018-Jun-18 10:20N 70°28' W 102°18'0 0.0 1008.5 0.8
2018-Jun-18 09:20N 70°28' W 102°18'0 0.0 1008.0 1.0
2018-Jun-18 09:10N 70°28' W 102°18'0 0.0 1008.0 1.0
2018-Jun-18 08:50N 70°28' W 102°18'0 0.0 1008.0 1.1
2018-Jun-18 08:40N 70°28' W 102°18'0 0.0 1008.0 1.1
2018-Jun-18 07:40N 70°28' W 102°18'0 1.2 1007.7 1.1
2018-Jun-18 07:30N 70°28' W 102°17'0 0.4 1007.7 1.1
2018-Jun-18 07:00N 70°28' W 102°18'0 0.0 1007.7 1.1
2018-Jun-18 06:10N 70°28' W 102°18'0 0.0 1007.4 1.1
2018-Jun-18 06:00N 70°28' W 102°18'0 0.0 1007.4 1.1
2018-Jun-18 05:50N 70°28' W 102°18'0 0.0 1007.4 1.1
2018-Jun-18 05:40N 70°28' W 102°18'0 0.0 1007.4 1.1
2018-Jun-18 05:00N 70°28' W 102°18'0 0.0 1007.3 1.1
2018-Jun-18 04:30N 70°28' W 102°18'0 0.0 1006.9 1.4
2018-Jun-18 04:20N 70°28' W 102°18'0 0.0 1006.9 1.4
2018-Jun-18 04:10N 70°28' W 102°18'0 0.0 1006.8 1.4
2018-Jun-18 04:00N 70°28' W 102°18'0 0.0 1006.6 1.5
2018-Jun-18 03:30N 70°28' W 102°18'0 0.0 1006.4 1.7
2018-Jun-18 03:20N 70°28' W 102°18'0 0.4 1006.4 1.7
2018-Jun-18 02:50N 70°28' W 102°17'0 2.4 1006.2 1.7
2018-Jun-18 02:40N 70°28' W 102°19'0 0.0 1006.2
2018-Jun-18 02:30N 70°28' W 102°19'0 0.0 1006.1 1.6
2018-Jun-18 02:20N 70°28' W 102°19'0 0.0 1006.1 1.6
2018-Jun-18 01:50N 70°28' W 102°19'0 1.2 1006.2 1.7
2018-Jun-18 01:40N 70°28' W 102°18'0 0.0 1006.2 1.7
2018-Jun-18 01:10N 70°28' W 102°18'0 0.0 1006.1 1.6
2018-Jun-18 01:00N 70°28' W 102°18'0 0.0 1006.1 1.7
2018-Jun-18 00:50N 70°28' W 102°18'0 0.0 1006.1 1.7
2018-Jun-18 00:40N 70°28' W 102°18'0 0.0 1006.1 1.7
2018-Jun-18 00:10N 70°28' W 102°18'0 0.0 1005.8 1.8
2018-Jun-18 00:00N 70°28' W 102°18'0 0.0 1005.8 1.8
2018-Jun-17 23:30N 70°28' W 102°18'0 1.2 1005.7 1.9
2018-Jun-17 23:20N 70°28' W 102°17'0 0.0 1005.4 1.8
2018-Jun-17 23:00N 70°28' W 102°17'0 0.0 1005.4 1.8
2018-Jun-17 22:30N 70°28' W 102°17'0 1.2 1005.3 1.7
2018-Jun-17 22:20N 70°28' W 102°18'0 0.0 1005.3 1.7
2018-Jun-17 21:50N 70°28' W 102°18'0 0.0 1005.3 1.7
2018-Jun-17 21:40N 70°28' W 102°18'0 0.0 1005.1 1.7
2018-Jun-17 21:20N 70°28' W 102°18'0 0.0 1005.1 1.5
2018-Jun-17 20:50N 70°28' W 102°18'0 0.0 1004.8 1.0
2018-Jun-17 20:40N 70°28' W 102°18'0 0.0 1004.7 1.2
2018-Jun-17 20:10N 70°28' W 102°18'0 0.0 1004.7 1.3
2018-Jun-17 20:00N 70°28' W 102°18'0 0.0 1004.7 1.0
2018-Jun-17 19:50N 70°28' W 102°18'0 0.0 1004.7 1.2
2018-Jun-17 19:10N 70°28' W 102°18'0 0.0 1004.6 1.0
2018-Jun-17 19:00N 70°28' W 102°18'1 1.8 1004.6 1.0
2018-Jun-17 18:40N 70°28' W 102°18'1 3.6 1004.4 1.1
2018-Jun-17 18:30N 70°28' W 102°18'0 0.0 1004.2 1.2
2018-Jun-17 18:20N 70°28' W 102°18'0 0.0 1004.2 1.2
2018-Jun-17 18:10N 70°28' W 102°18'0 0.0 1004.0 1.1
2018-Jun-17 17:30N 70°28' W 102°18'1 4.3 1004.0 1.1
2018-Jun-17 17:20N 70°28' W 102°17'0 0.0 1003.8 1.1
2018-Jun-17 17:00N 70°28' W 102°17'1 2.2 1003.8 1.1
2018-Jun-17 16:40N 70°28' W 102°18'0 1.2 1003.6 1.0
2018-Jun-17 16:30N 70°28' W 102°17'0 0.3 1.0
2018-Jun-17 15:50N 70°28' W 102°18'0 0.0 1003.2 0.7
2018-Jun-17 15:40N 70°28' W 102°18'0 0.0 1003.2 0.7
2018-Jun-17 15:20N 70°28' W 102°18'0 0.0 1003.2 0.7
2018-Jun-17 15:10N 70°28' W 102°18'0 0.0 1003.2 0.7
2018-Jun-17 15:00N 70°28' W 102°18'0 0.0 1003.5 0.6
2018-Jun-17 14:50N 70°28' W 102°18'0 0.0 1003.5
2018-Jun-17 14:40N 70°28' W 102°18'0 0.0 1003.5 0.6
2018-Jun-17 14:10N 70°28' W 102°18'0 0.0 1003.3 0.8
2018-Jun-17 14:00N 70°28' W 102°18'0 0.0 1003.3 0.8
2018-Jun-17 13:30N 70°28' W 102°18'0 1.2 1003.5 0.7
2018-Jun-17 13:20N 70°28' W 102°19'0 0.0 1003.6 0.8
2018-Jun-17 13:10N 70°28' W 102°19'0 1.2 1003.6 0.8
2018-Jun-17 13:00N 70°28' W 102°18'0 0.0 1003.6 0.8
2018-Jun-17 12:30N 70°28' W 102°18'0 0.0
2018-Jun-17 12:20N 70°28' W 102°18'0 0.4 1003.3 0.7
2018-Jun-17 11:50N 70°28' W 102°17'0 0.6 1003.5 1.0
2018-Jun-17 11:30N 70°28' W 102°18'0 1.2 1003.5 0.7
2018-Jun-17 11:20N 70°28' W 102°17'0 0.4 1003.5 0.7
2018-Jun-17 10:50N 70°28' W 102°18'0 0.0 1003.3 1.0
2018-Jun-17 10:40N 70°28' W 102°18'0 0.0 1003.3 1.0
2018-Jun-17 10:10N 70°28' W 102°18'0 0.0 1003.6 0.6
2018-Jun-17 09:50N 70°28' W 102°18'0 0.0 1003.6 0.5
2018-Jun-17 09:40N 70°28' W 102°18'0 0.0 1003.6 0.5
2018-Jun-17 09:00N 70°28' W 102°18'0 0.0 1003.5 0.6
2018-Jun-17 08:10N 70°28' W 102°18'0 0.0 1003.8 0.8
2018-Jun-17 08:00N 70°28' W 102°18'0 0.0 1003.8 0.8
2018-Jun-17 07:50N 70°28' W 102°18'0 0.0 1003.9 0.9
2018-Jun-17 07:20N 70°28' W 102°18'0 0.0 1003.9 0.7
2018-Jun-17 06:30N 70°28' W 102°18'0 0.0 1004.2 0.9
2018-Jun-17 06:10N 70°28' W 102°18'0 0.0 1004.4 0.7
2018-Jun-17 06:00N 70°28' W 102°18'0 0.0 1004.4 0.7
2018-Jun-17 05:30N 70°28' W 102°18'0 0.0 1005.0 1.0
2018-Jun-17 05:20N 70°28' W 102°18'0 0.0 1005.0 1.0
2018-Jun-17 05:00N 70°28' W 102°18'0 0.0 1005.3
2018-Jun-17 04:50N 70°28' W 102°18'0 0.0 1005.3 1.3
2018-Jun-17 04:30N 70°28' W 102°18'0 0.0 1005.7 1.5
2018-Jun-17 04:20N 70°28' W 102°18'0 0.0 1005.7 1.1
2018-Jun-17 03:50N 70°28' W 102°18'0 1.2 1006.1 1.3
2018-Jun-17 03:40N 70°28' W 102°17'0 0.0 1006.1 1.3
2018-Jun-17 03:20N 70°28' W 102°17'0 1.2 1006.4 1.5
2018-Jun-17 03:10N 70°28' W 102°18'0 0.0 1006.5 1.5
2018-Jun-17 03:00N 70°28' W 102°18'0 0.0 1006.6 1.6
2018-Jun-17 02:50N 70°28' W 102°18'0 1.2
2018-Jun-17 02:40N 70°28' W 102°17'0 0.4 1006.8 1.4
2018-Jun-17 02:10N 70°28' W 102°18'0 0.0 1006.9 1.4
2018-Jun-17 02:00N 70°28' W 102°18'0 0.0 1006.9 1.4
2018-Jun-17 01:40N 70°28' W 102°18'0 1.2 1006.9 1.6
2018-Jun-17 01:30N 70°28' W 102°17'0 0.0 1006.9 1.6
2018-Jun-17 01:20N 70°28' W 102°17'0 0.0 1006.5 1.9
2018-Jun-17 01:10N 70°28' W 102°17'0 1.2 1006.5 1.9
2018-Jun-17 01:00N 70°28' W 102°18'0 0.4 1006.5 1.9
2018-Jun-17 00:30N 70°28' W 102°17'0 0.0 1006.8 2.2
2018-Jun-17 00:20N 70°28' W 102°17'0 1.2 1006.8 2.2
2018-Jun-17 00:10N 70°28' W 102°17'0 0.0 1006.8 2.3
2018-Jun-17 00:00N 70°28' W 102°17'0 0.0 1007.2 2.5
2018-Jun-16 23:50N 70°28' W 102°17'0 2.4 1007.2 2.5
2018-Jun-16 23:40N 70°28' W 102°18'213.0 1007.4 2.5
2018-Jun-16 23:30N 70°27' W 102°23'213.0 1007.6 2.6
2018-Jun-16 23:20N 70°28' W 102°18'0 0.0 1007.6 2.6
2018-Jun-16 22:50N 70°28' W 102°18'0 0.0 1007.2 2.9
2018-Jun-16 22:40N 70°28' W 102°18'0 0.0 1007.2 2.9
2018-Jun-16 22:30N 70°28' W 102°18'0 0.0 1007.0 2.8
2018-Jun-16 22:20N 70°28' W 102°18'0 0.0 1007.3 2.9
2018-Jun-16 22:10N 70°28' W 102°18'0 0.0 1007.3 2.9
2018-Jun-16 21:50N 70°28' W 102°18'0 0.0 1007.7 3.5
2018-Jun-16 21:40N 70°28' W 102°18'0 0.0 1007.7 3.5
2018-Jun-16 21:10N 70°28' W 102°18'0 0.0 1007.9 3.1
2018-Jun-16 21:00N 70°28' W 102°18'0 0.0 1007.6 2.8
2018-Jun-16 20:50N 70°28' W 102°18'0 0.0 1007.6 2.8
2018-Jun-16 20:40N 70°28' W 102°18'0 0.0 1007.3 3.8
2018-Jun-16 20:30N 70°28' W 102°18'0 0.0 1007.3 3.8
2018-Jun-16 20:10N 70°28' W 102°18'0 0.0 1007.2 4.2
2018-Jun-16 20:00N 70°28' W 102°18'0 0.0 1007.3 4.2
2018-Jun-16 19:30N 70°28' W 102°18'0 0.0 1007.4 3.6
2018-Jun-16 19:20N 70°28' W 102°18'0 0.0 1007.6 3.3
2018-Jun-16 19:10N 70°28' W 102°18'0 0.0 1007.6 3.3
2018-Jun-16 19:00N 70°28' W 102°18'0 0.0 1007.4 3.3
2018-Jun-16 18:50N 70°28' W 102°18'0 0.0 1007.3 3.4
2018-Jun-16 18:40N 70°28' W 102°18'0 0.0 1007.0 3.5
2018-Jun-16 18:30N 70°28' W 102°18'0 0.0 1007.0 3.5
2018-Jun-16 17:50N 70°28' W 102°18'0 0.0 1006.6 3.4
2018-Jun-16 17:40N 70°28' W 102°18'0 0.0 1006.6 3.7
2018-Jun-16 17:30N 70°28' W 102°18'0 0.0 1006.6 3.7
2018-Jun-16 17:20N 70°28' W 102°18'0 0.6 1006.4 3.9
2018-Jun-16 17:00N 70°28' W 102°17'0 0.0 1006.1 4.1
2018-Jun-16 16:50N 70°28' W 102°17'0 0.3 1006.1 4.1
2018-Jun-16 16:10N 70°28' W 102°18'0 0.0 1005.8 3.6
2018-Jun-16 16:00N 70°28' W 102°18'0 0.0 1005.8 3.5
2018-Jun-16 15:50N 70°28' W 102°18'0 1.2 1005.8 3.5
2018-Jun-16 15:40N 70°28' W 102°17'0 0.0 1005.8 3.8
2018-Jun-16 15:30N 70°28' W 102°17'0 1.2 1005.7 4.0
2018-Jun-16 15:20N 70°28' W 102°18'0 1.2 1005.8 4.1
2018-Jun-16 15:10N 70°28' W 102°19'0 1.2 1005.8 4.1
2018-Jun-16 15:00N 70°28' W 102°18'0 0.0 1005.8 4.0
2018-Jun-16 14:20N 70°28' W 102°18'0 0.0 1005.8 5.0
2018-Jun-16 14:10N 70°28' W 102°18'0 0.0 1005.9 5.6
2018-Jun-16 14:00N 70°28' W 102°18'0 0.0 1005.7 5.6
2018-Jun-16 13:50N 70°28' W 102°18'0 0.0 1005.7 4.8
2018-Jun-16 13:40N 70°28' W 102°18'0 0.0 1005.7 4.7
2018-Jun-16 13:30N 70°28' W 102°18'0 0.0 1005.7 4.7
2018-Jun-16 13:20N 70°28' W 102°18'0 0.3 1005.8 5.5
2018-Jun-16 12:40N 70°28' W 102°19'0 0.0 1006.1 2.8
2018-Jun-16 12:30N 70°28' W 102°19'0 1.2 1006.1 2.8
2018-Jun-16 12:20N 70°28' W 102°18'0 0.0 1006.1 2.2
2018-Jun-16 12:10N 70°28' W 102°18'0 0.0 1006.1 1.6
2018-Jun-16 12:00N 70°28' W 102°18'0 1.2 1006.2 1.6
2018-Jun-16 11:50N 70°28' W 102°17'0 0.0 1006.4
2018-Jun-16 11:40N 70°28' W 102°17'0 0.3 1006.4 1.3
2018-Jun-16 11:00N 70°28' W 102°18'0 0.0 1006.6 1.0
2018-Jun-16 10:50N 70°28' W 102°18'1 3.6 1006.6 1.0
2018-Jun-16 10:40N 70°29' W 102°18'1 1.8 1006.5 0.9
2018-Jun-16 10:20N 70°28' W 102°18'0 0.0 1006.6 0.9
2018-Jun-16 10:10N 70°28' W 102°18'0 0.0 1006.6 0.9
2018-Jun-16 09:10N 70°28' W 102°18'0 0.0 1007.0 0.9
2018-Jun-16 08:40N 70°28' W 102°18'0 0.0 1007.0 1.0
2018-Jun-16 08:30N 70°28' W 102°18'0 0.4 1007.0 1.0
2018-Jun-16 07:30N 70°28' W 102°17'0 0.8 1007.6 1.0
2018-Jun-16 07:00N 70°28' W 102°18'0 0.0 1007.7 1.1
2018-Jun-16 06:30N 70°28' W 102°18'0 0.0 1007.9 1.1
2018-Jun-16 06:20N 70°28' W 102°18'0 0.0 1008.0 1.1
2018-Jun-16 05:40N 70°28' W 102°18'0 0.0 1008.3 1.1
2018-Jun-16 05:30N 70°28' W 102°18'0 0.0 1008.3 1.1
2018-Jun-16 05:20N 70°28' W 102°18'1 1.3 1008.3 1.1
2018-Jun-16 04:50N 70°28' W 102°17'1 3.8 1008.7 1.1
2018-Jun-16 04:40N 70°28' W 102°18'0 0.4 1008.7 1.1
2018-Jun-16 04:10N 70°28' W 102°17'0 0.0 1009.0 1.1
2018-Jun-16 04:00N 70°28' W 102°17'0 1.2 1009.0 1.1
2018-Jun-16 03:50N 70°28' W 102°18'0 1.2 1009.0 1.2
2018-Jun-16 03:40N 70°28' W 102°17'0 0.4 1009.1 1.2
2018-Jun-16 03:10N 70°28' W 102°18'0 1.2 1009.4 1.3
2018-Jun-16 03:00N 70°28' W 102°19'0 0.0 1009.4 1.4
2018-Jun-16 02:30N 70°28' W 102°19'1 3.6 1009.6
2018-Jun-16 02:20N 70°28' W 102°19'0 0.0
2018-Jun-16 02:10N 70°28' W 102°19'1 3.8 1009.8 1.9
2018-Jun-16 02:00N 70°28' W 102°18'0 0.4 1010.0 1.8
2018-Jun-16 01:30N 70°28' W 102°17'0 1.2 1010.2 2.0
2018-Jun-16 01:20N 70°28' W 102°18'0 0.0 1010.2 2.0
2018-Jun-16 00:50N 70°28' W 102°18'0 0.0 1010.2 2.0
2018-Jun-16 00:40N 70°28' W 102°18'1 3.8 1010.5 2.1
2018-Jun-16 00:30N 70°28' W 102°17'1 3.8 1010.5 2.2
2018-Jun-16 00:20N 70°28' W 102°18'0 0.0 1010.5 2.2
2018-Jun-15 23:50N 70°28' W 102°18'0 0.0 1010.7 3.1
2018-Jun-15 23:40N 70°28' W 102°18'0 0.0 1010.7 3.1
2018-Jun-15 23:10N 70°28' W 102°18'0 0.0 1011.0 3.5
2018-Jun-15 23:00N 70°28' W 102°18'0 0.0 1011.0
2018-Jun-15 22:50N 70°28' W 102°18'0 0.0 1011.0 3.3
2018-Jun-15 22:40N 70°28' W 102°18'0 0.0 1011.0 3.3
2018-Jun-15 22:30N 70°28' W 102°18'0 0.0 1010.9 3.4
2018-Jun-15 22:00N 70°28' W 102°18'0 0.0 1010.9 2.8
2018-Jun-15 21:30N 70°28' W 102°18'1 4.8 1011.1 3.0
2018-Jun-15 21:20N 70°28' W 102°16'0 0.0 1011.1 3.0
2018-Jun-15 21:10N 70°28' W 102°16'1 4.8 1011.1 2.8
2018-Jun-15 21:00N 70°28' W 102°18'0 0.0 1011.1 3.0
2018-Jun-15 20:30N 70°28' W 102°18'0 0.0 1011.4 4.6
2018-Jun-15 20:20N 70°28' W 102°18'0 0.0 1011.4 4.6
2018-Jun-15 19:50N 70°28' W 102°18'0 0.0 1011.6 5.6
2018-Jun-15 19:40N 70°28' W 102°18'0 0.0 1011.7 5.5
2018-Jun-15 19:30N 70°28' W 102°18'0 0.0 1011.7 6.3
2018-Jun-15 19:20N 70°28' W 102°18'0 0.0 1011.7 6.3
2018-Jun-15 18:50N 70°28' W 102°18'0 0.0 1011.8 4.9
2018-Jun-15 18:40N 70°28' W 102°18'1 1.7 1011.8 4.9
2018-Jun-15 18:10N 70°28' W 102°16'1 5.1 1012.0 4.7
2018-Jun-15 18:00N 70°28' W 102°18'0 0.0 1012.0 4.7
2018-Jun-15 17:50N 70°28' W 102°18'0 0.0 1012.0 5.6
2018-Jun-15 17:40N 70°28' W 102°18'0 0.0 1012.0 5.6
2018-Jun-15 17:10N 70°28' W 102°18'0 1.2 1012.0 5.0
2018-Jun-15 17:00N 70°28' W 102°17'0 0.4 1012.0 5.0
2018-Jun-15 16:30N 70°28' W 102°18'0 0.0 1012.2 4.4
2018-Jun-15 16:20N 70°28' W 102°18'1 5.1 1012.2 4.4
2018-Jun-15 16:10N 70°28' W 102°16'0 0.0 1012.2 4.4
2018-Jun-15 16:00N 70°28' W 102°16'1 6.0 1012.2 4.4
2018-Jun-15 15:50N 70°28' W 102°19'0 0.6 1012.1 4.0
2018-Jun-15 15:30N 70°28' W 102°18'0 0.0 1012.4 4.6
2018-Jun-15 15:20N 70°28' W 102°18'0 0.0 1012.4 4.6
2018-Jun-15 14:50N 70°28' W 102°18'0 0.0 1012.4 4.9
2018-Jun-15 14:40N 70°28' W 102°18'0 0.0 1012.4 4.9
2018-Jun-15 14:30N 70°28' W 102°18'0 0.0 1012.5 5.0
2018-Jun-15 14:20N 70°28' W 102°18'0 0.0 1012.5 5.0
2018-Jun-15 14:10N 70°28' W 102°18'0 0.0 1012.6 4.3
2018-Jun-15 13:40N 70°28' W 102°18'0 0.0 1012.9 3.4
2018-Jun-15 12:50N 70°28' W 102°18'0 0.0 1013.1 2.8
2018-Jun-15 12:40N 70°28' W 102°18'0 0.0 1013.1 2.6
2018-Jun-15 12:30N 70°28' W 102°18'0 0.0 1013.2 2.9
2018-Jun-15 12:20N 70°28' W 102°18'0 0.0 1013.2 2.9
2018-Jun-15 12:00N 70°28' W 102°18'0 0.0 1013.3 2.0
2018-Jun-15 11:10N 70°28' W 102°18'0 0.0 1013.3 1.6
2018-Jun-15 11:00N 70°28' W 102°18'0 0.0 1013.3 1.6
2018-Jun-15 10:50N 70°28' W 102°18'0 0.0 1013.3 1.6
2018-Jun-15 10:40N 70°28' W 102°18'0 0.0 1013.3 1.6
2018-Jun-15 09:30N 70°28' W 102°18'0 0.0 1013.9 0.8
2018-Jun-15 09:20N 70°28' W 102°18'0 0.0 1013.9 0.8
2018-Jun-15 09:10N 70°28' W 102°18'0 0.0 1014.0 0.5
2018-Jun-15 09:00N 70°28' W 102°18'0 0.0 1014.0 0.2
2018-Jun-15 07:40N 70°28' W 102°18'0 0.0 1014.2 0.1
2018-Jun-15 07:30N 70°28' W 102°18'1 0.9 1014.4 0.1
2018-Jun-15 06:50N 70°28' W 102°19'1 0.8 1014.4 0.3
2018-Jun-15 06:00N 70°28' W 102°18'0 0.0 1014.7 0.4
2018-Jun-15 05:50N 70°28' W 102°18'0 0.0 1014.7 0.4
2018-Jun-15 05:10N 70°28' W 102°18'1 3.8 1015.0 0.3
2018-Jun-15 05:00N 70°28' W 102°17'1 0.9 1015.0 0.3
2018-Jun-15 04:20N 70°28' W 102°18'0 0.0 1014.8 0.5
2018-Jun-15 04:10N 70°28' W 102°18'0 0.0 1015.0 0.5
2018-Jun-15 03:30N 70°28' W 102°18'0 0.0 1015.0 0.6
2018-Jun-15 03:20N 70°28' W 102°18'0 1.2 1015.1 0.7
2018-Jun-15 03:10N 70°28' W 102°17'0 0.0 1015.1 0.7
2018-Jun-15 02:50N 70°28' W 102°17'0 1.2 1015.0 0.7
2018-Jun-15 02:40N 70°28' W 102°18'0 0.0 0.8
2018-Jun-15 02:30N 70°28' W 102°18'0 0.0 1015.0 0.7
2018-Jun-15 02:20N 70°28' W 102°18'0 0.3 1015.0 0.7
2018-Jun-15 01:40N 70°28' W 102°17'0 0.0 1015.4 0.6
2018-Jun-15 01:30N 70°28' W 102°17'0 0.6 1015.4 0.6
2018-Jun-15 01:10N 70°28' W 102°18'0 0.0 1015.5
2018-Jun-15 01:00N 70°28' W 102°18'0 0.0 1015.5 0.9
2018-Jun-15 00:50N 70°28' W 102°18'0 0.0 1015.9 1.1
2018-Jun-15 00:40N 70°28' W 102°18'0 0.0 1015.8 1.1
2018-Jun-15 00:00N 70°28' W 102°18'0 0.0 1016.1 1.7
2018-Jun-14 23:50N 70°28' W 102°18'0 0.0 1016.1 1.7
2018-Jun-14 23:30N 70°28' W 102°18'1 3.8 1016.1 1.3
2018-Jun-14 23:20N 70°28' W 102°19'0 0.0 1016.1 1.3
2018-Jun-14 23:10N 70°28' W 102°19'1 3.8 1016.3 2.1
2018-Jun-14 23:00N 70°28' W 102°18'0 0.0 1016.5 2.5
2018-Jun-14 22:20N 70°28' W 102°18'0 0.0 1016.5 2.3
2018-Jun-14 22:10N 70°28' W 102°18'0 0.0 1016.5 2.0
2018-Jun-14 21:50N 70°28' W 102°18'0 1.2 1016.5 2.3
2018-Jun-14 21:40N 70°28' W 102°17'0 0.0 1016.6 2.4
2018-Jun-14 21:30N 70°28' W 102°17'0 0.0 1016.8 2.5
2018-Jun-14 21:20N 70°28' W 102°17'0 1.2 1016.9 2.3
2018-Jun-14 21:10N 70°28' W 102°18'0 0.0 1017.0 2.0
2018-Jun-14 20:50N 70°28' W 102°18'0 0.0 1017.0 1.6
2018-Jun-14 20:40N 70°28' W 102°18'0 0.0 1017.0 1.2
2018-Jun-14 20:30N 70°28' W 102°18'0 0.0 1017.0 1.2
2018-Jun-14 20:10N 70°28' W 102°18'0 0.0 1017.0 1.9
2018-Jun-14 20:00N 70°28' W 102°18'0 0.0 1017.2 2.1
2018-Jun-14 19:50N 70°28' W 102°18'0 0.0 1017.2 2.4
2018-Jun-14 19:40N 70°28' W 102°18'0 0.0 1017.3 2.5
2018-Jun-14 19:30N 70°28' W 102°18'0 0.0 1017.3 2.5
2018-Jun-14 19:00N 70°28' W 102°18'0 0.0 1017.4 1.6
2018-Jun-14 18:50N 70°28' W 102°18'0 0.0 1017.4 1.6
2018-Jun-14 18:30N 70°28' W 102°18'0 1.2 1017.4 1.9
2018-Jun-14 18:20N 70°28' W 102°17'0 0.0 1017.4 1.9
2018-Jun-14 18:10N 70°28' W 102°17'0 0.0 1017.4 1.5
2018-Jun-14 18:00N 70°28' W 102°17'0 0.0 1017.6 1.3
2018-Jun-14 17:50N 70°28' W 102°17'0 0.4 1017.6 1.1
2018-Jun-14 17:20N 70°28' W 102°18'0 0.0 1017.6 1.3
2018-Jun-14 17:10N 70°28' W 102°18'0 0.0 1017.6 1.3
2018-Jun-14 16:50N 70°28' W 102°18'0 1.2 1017.7 1.8
2018-Jun-14 16:40N 70°28' W 102°17'0 1.2 1017.7 1.7
2018-Jun-14 16:30N 70°28' W 102°18'0 0.0 1017.8 1.6
2018-Jun-14 16:20N 70°28' W 102°18'0 0.0 1017.8
2018-Jun-14 16:10N 70°28' W 102°18'0 0.0 1017.8 1.1
2018-Jun-14 15:50N 70°28' W 102°18'0 0.0 1018.0 1.1
2018-Jun-14 15:40N 70°28' W 102°18'0 1.2 1018.1 1.3
2018-Jun-14 15:30N 70°28' W 102°19'0 0.6 1018.1 1.3
2018-Jun-14 15:10N 70°28' W 102°18'0 0.0 1018.1 0.6
2018-Jun-14 15:00N 70°28' W 102°18'0 0.0 1018.1 0.6
2018-Jun-14 14:40N 70°28' W 102°18'0 0.0 1018.3 0.3
2018-Jun-14 14:30N 70°28' W 102°18'0 0.0 1018.4 0.3
2018-Jun-14 14:00N 70°28' W 102°18'0 0.0 1018.5 0.2
2018-Jun-14 13:50N 70°28' W 102°18'0 0.3 1018.5 0.2
2018-Jun-14 13:10N 70°28' W 102°17'0 0.0 1018.8 0.2
2018-Jun-14 13:00N 70°28' W 102°17'0 1.2 1018.8 0.2
2018-Jun-14 12:50N 70°28' W 102°18'0 0.0 1018.8 -0.0
2018-Jun-14 12:10N 70°28' W 102°18'0 0.0 1018.9 -0.0
2018-Jun-14 11:30N 70°28' W 102°18'0 0.0 1019.4 -0.1
2018-Jun-14 11:20N 70°28' W 102°18'0 0.0 1019.4 -0.1
2018-Jun-14 11:10N 70°28' W 102°18'0 0.0 1019.5 -0.1
2018-Jun-14 09:40N 70°28' W 102°18'0 1.2 1019.6 0.1
2018-Jun-14 09:30N 70°28' W 102°19'0 0.2 1019.8 0.1
2018-Jun-14 08:10N 70°28' W 102°18'0 0.0 1019.9 -0.2
2018-Jun-14 08:00N 70°28' W 102°18'0 1.2 1019.9 -0.2
2018-Jun-14 07:50N 70°28' W 102°17'0 0.6 1019.9 -0.2
2018-Jun-14 07:10N 70°28' W 102°19'0 0.3 1019.8 -0.3
2018-Jun-14 06:30N 70°28' W 102°18'0 0.0 1020.0 -0.6
2018-Jun-14 06:20N 70°28' W 102°18'0 0.0 1020.0 -0.6
2018-Jun-14 05:30N 70°28' W 102°18'0 0.0 1020.2 -0.7
2018-Jun-14 05:20N 70°28' W 102°18'0 0.0 1020.2 -0.8
2018-Jun-14 05:10N 70°28' W 102°18'0 0.0 1020.3 -0.9
2018-Jun-14 04:50N 70°28' W 102°18'0 0.0 1020.2 -0.9
2018-Jun-14 04:40N 70°28' W 102°18'0 0.0 1020.2 -0.9
2018-Jun-14 03:50N 70°28' W 102°18'0 0.0 1020.0 -0.8
2018-Jun-14 03:40N 70°28' W 102°18'0 0.0 1020.0 -0.8
2018-Jun-14 03:30N 70°28' W 102°18'0 0.0 1019.9 -0.7
2018-Jun-14 03:20N 70°28' W 102°18'0 1.2 1019.9 -0.5
2018-Jun-14 03:10N 70°28' W 102°17'0 1.2 1019.8 -0.4
2018-Jun-14 03:00N 70°28' W 102°18'0 0.0 1019.8 -0.4
2018-Jun-14 02:50N 70°28' W 102°18'0 0.0 1019.9 -0.4
2018-Jun-14 02:10N 70°28' W 102°18'0 0.0 1020.0 0.3
2018-Jun-14 02:00N 70°28' W 102°18'0 0.0 1020.0 0.3
2018-Jun-14 01:50N 70°28' W 102°18'0 0.0 1020.0 0.5
2018-Jun-14 01:40N 70°28' W 102°18'0 0.0 1020.0 0.5
2018-Jun-14 01:30N 70°28' W 102°18'0 0.0 1020.2 1.0
2018-Jun-14 01:20N 70°28' W 102°18'0 0.0 1020.2 1.0
2018-Jun-14 01:10N 70°28' W 102°18'0 0.0 1020.0 1.3
2018-Jun-14 01:00N 70°28' W 102°18'1 3.8 1019.9 1.9
2018-Jun-14 00:50N 70°28' W 102°17'1 1.9 1019.9 1.9
2018-Jun-14 00:30N 70°28' W 102°18'0 0.0 1019.8 3.4
2018-Jun-14 00:20N 70°28' W 102°18'0 0.0 1019.8 3.4
2018-Jun-14 00:10N 70°28' W 102°18'0 0.0 1019.6 3.7
2018-Jun-14 00:00N 70°28' W 102°18'0 0.0 1019.6 3.7
2018-Jun-13 23:50N 70°28' W 102°18'0 0.0 1019.6 4.2
2018-Jun-13 23:40N 70°28' W 102°18'0 0.0 1019.6 4.1
2018-Jun-13 23:30N 70°28' W 102°18'0 0.6 1019.8 4.2
2018-Jun-13 23:10N 70°28' W 102°17'0 0.6 1019.8 4.1
2018-Jun-13 22:50N 70°28' W 102°18'1 3.6 1019.8 4.2
2018-Jun-13 22:40N 70°28' W 102°18'1 3.6 1019.8 4.2
2018-Jun-13 22:30N 70°28' W 102°18'0 0.0 1019.8 4.0
2018-Jun-13 22:20N 70°28' W 102°18'0 0.0 1019.8 4.0
2018-Jun-13 22:10N 70°28' W 102°18'0 0.0
2018-Jun-13 22:00N 70°28' W 102°18'0 0.0 1019.6 3.6
2018-Jun-13 21:50N 70°28' W 102°18'0 0.0 1019.6 3.6
2018-Jun-13 21:40N 70°28' W 102°18'0 0.0 1019.6 3.5
2018-Jun-13 21:30N 70°28' W 102°18'0 0.0 1019.6 3.8
2018-Jun-13 21:20N 70°28' W 102°18'0 0.0 1019.6 3.8
2018-Jun-13 21:00N 70°28' W 102°18'0 0.0 1019.6 4.0
2018-Jun-13 20:50N 70°28' W 102°18'0 0.0 1019.6 4.3
2018-Jun-13 20:40N 70°28' W 102°18'0 0.0 1019.6 4.6
2018-Jun-13 20:30N 70°28' W 102°18'0 1.2 1019.5 4.9
2018-Jun-13 20:20N 70°28' W 102°17'0 1.2 1019.4 4.7
2018-Jun-13 20:10N 70°28' W 102°18'0 0.0 1019.4 4.1
2018-Jun-13 19:50N 70°28' W 102°18'0 0.0 1019.2 3.4
2018-Jun-13 19:40N 70°28' W 102°18'0 0.0 1019.2 4.1
2018-Jun-13 19:20N 70°28' W 102°18'0 0.0 1019.1 4.1
2018-Jun-13 19:10N 70°28' W 102°18'0 0.0 1018.9 4.1
2018-Jun-13 19:00N 70°28' W 102°18'0 0.0 1018.9 4.1
2018-Jun-13 18:50N 70°28' W 102°18'0 0.0 1019.1 4.3
2018-Jun-13 18:40N 70°28' W 102°18'0 0.0 1018.9 4.0
2018-Jun-13 18:30N 70°28' W 102°18'0 0.0 1018.9 4.0
2018-Jun-13 18:10N 70°28' W 102°18'0 0.0 1018.9 2.9
2018-Jun-13 17:30N 70°28' W 102°18'0 1.2 1018.8 2.6
2018-Jun-13 17:20N 70°28' W 102°17'0 1.2 1018.7 2.2
2018-Jun-13 17:10N 70°28' W 102°18'   1018.5 2.2
Track history (hours):
 
Tides and Currents Weather Stations Pressure Air Temp Water Temp Dewpoint Dewpoint Depression Visibility Wind Speed Wind Dir Waves Ship Positions

Drifting buoy 48507

Last reported at 2018-Jun-23 17:10 UTC. Time now 2018-Jun-23 17:32 UTC.
Position N 70°28' W 102°18'.

Barometer 1011.3 mb
Air temperature 8.7 ° C

Date/timePositionNaut miles runAvg speedWind from/ knotsBaromVisibWave heightAir tempDewpointWater temp
2018-Jun-23 17:10N 70°28' W 102°18'0 0.0 1011.3 8.7
2018-Jun-23 17:00N 70°28' W 102°18'0 0.0 1011.6 8.7
2018-Jun-23 16:20N 70°28' W 102°18'1 4.3 1011.8 7.8
2018-Jun-23 16:10N 70°28' W 102°17'0 0.0 1012.0 7.1
2018-Jun-23 16:00N 70°28' W 102°17'1 1.7 1012.0 7.1
2018-Jun-23 15:30N 70°28' W 102°19'0 1.2 1012.1 5.5
2018-Jun-23 15:20N 70°28' W 102°18'0 0.0 1012.1 5.1
2018-Jun-23 15:10N 70°28' W 102°18'0 1.2 1012.1 5.1
2018-Jun-23 15:00N 70°28' W 102°19'0 0.6 1012.2 4.8
2018-Jun-23 14:40N 70°28' W 102°18'0 0.0 1012.4 4.3
2018-Jun-23 14:30N 70°28' W 102°18'0 0.0 1012.5 4.2
2018-Jun-23 13:50N 70°28' W 102°18'0 0.0 1012.9 3.4
2018-Jun-23 13:40N 70°28' W 102°18'0 0.0 1012.9 3.4
2018-Jun-23 13:20N 70°28' W 102°18'0 1.2 1013.1 3.2
2018-Jun-23 13:10N 70°28' W 102°17'0 0.0 1013.1 3.2
2018-Jun-23 13:00N 70°28' W 102°17'1 3.8 1013.1 3.1
2018-Jun-23 12:50N 70°28' W 102°17'1 4.3 1013.2 3.0
2018-Jun-23 12:40N 70°28' W 102°18'0 0.0 1013.2 2.9
2018-Jun-23 12:10N 70°28' W 102°18'0 0.0 1013.3 2.9
2018-Jun-23 12:00N 70°28' W 102°18'0 0.0 1013.3 2.9
2018-Jun-23 11:40N 70°28' W 102°18'0 0.0 1013.6 2.5
2018-Jun-23 11:20N 70°28' W 102°18'0 0.0 1013.7 2.3
2018-Jun-23 11:10N 70°28' W 102°18'0 0.0 1013.7 2.3
2018-Jun-23 11:00N 70°28' W 102°18'0 0.0 1013.7 2.2
2018-Jun-23 10:00N 70°28' W 102°18'0 0.0 1014.2 1.7
2018-Jun-23 09:30N 70°28' W 102°18'0 0.0 1014.3 1.3
2018-Jun-23 08:30N 70°28' W 102°18'0 0.0 1014.7 1.2
2018-Jun-23 08:20N 70°28' W 102°18'0 0.0 1014.7 1.2
2018-Jun-23 07:50N 70°28' W 102°18'0 0.0 1014.6 1.3
2018-Jun-23 07:20N 70°28' W 102°18'0 0.0 1014.8 1.2
2018-Jun-23 06:50N 70°28' W 102°18'0 1.2 1015.0 1.2
2018-Jun-23 06:40N 70°28' W 102°17'0 0.0 1015.0 1.2
2018-Jun-23 05:40N 70°28' W 102°17'0 0.4 1015.2 0.1
2018-Jun-23 05:10N 70°28' W 102°18'0 1.2 1015.4 0.2
2018-Jun-23 05:00N 70°28' W 102°17'1 0.9 1015.4 0.2
2018-Jun-23 04:10N 70°28' W 102°19'0 0.0 1015.8 1.1
2018-Jun-23 04:00N 70°28' W 102°19'0 0.0 1015.8 1.1
2018-Jun-23 03:50N 70°28' W 102°19'1 1.9 1015.9 1.3
2018-Jun-23 03:30N 70°28' W 102°18'0 1.2 1016.1 2.1
2018-Jun-23 03:20N 70°28' W 102°17'1 5.1 1016.1 2.8
2018-Jun-23 03:10N 70°28' W 102°19'0 0.0 1016.1 2.8
2018-Jun-23 02:30N 70°28' W 102°19'0 0.0 1016.5 3.7
2018-Jun-23 02:20N 70°28' W 102°19'0 0.0 1016.5 3.5
2018-Jun-23 02:10N 70°28' W 102°19'1 2.5 1016.5 3.4
2018-Jun-23 01:50N 70°28' W 102°17'0 1.2 1016.6 5.6
2018-Jun-23 01:40N 70°28' W 102°18'0 0.0 1016.6 6.2
2018-Jun-23 01:30N 70°28' W 102°18'1 0.9 6.2
2018-Jun-23 00:50N 70°28' W 102°18'1 3.8 1016.6 6.2
2018-Jun-23 00:40N 70°28' W 102°17'0 1.2 1016.6 6.2
2018-Jun-23 00:30N 70°28' W 102°18'0 0.0 1016.8 6.9
2018-Jun-23 00:10N 70°28' W 102°18'1 3.8 1016.8 8.7
2018-Jun-23 00:00N 70°28' W 102°19'1 3.8 1016.8 8.4
2018-Jun-22 23:50N 70°28' W 102°18'0 0.0 1016.8 8.4
2018-Jun-22 23:10N 70°28' W 102°18'0 0.0 1016.8 8.4
2018-Jun-22 23:00N 70°28' W 102°18'0 0.0 1016.8 7.6
2018-Jun-22 22:30N 70°28' W 102°18'1 3.6 1016.6 6.9
2018-Jun-22 22:20N 70°28' W 102°18'1 3.6 1016.6 5.5
2018-Jun-22 22:10N 70°28' W 102°18'0 0.3 1016.6 5.5
2018-Jun-22 21:30N 70°28' W 102°17'0 1.2 1016.8 5.4
2018-Jun-22 21:20N 70°28' W 102°18'0 0.0 1016.8 5.4
2018-Jun-22 20:50N 70°28' W 102°18'0 0.0 1016.8 7.1
2018-Jun-22 20:40N 70°28' W 102°18'0 0.0 1016.8 6.4
2018-Jun-22 19:50N 70°28' W 102°18'0 0.0 5.6
2018-Jun-22 19:40N 70°28' W 102°18'0 0.0 1016.6 5.6
2018-Jun-22 19:10N 70°28' W 102°18'0 0.0 1016.5 6.0
2018-Jun-22 19:00N 70°28' W 102°18'0 0.0 1016.5 5.9
2018-Jun-22 18:10N 70°28' W 102°18'0 0.0 1016.6 2.3
2018-Jun-22 18:00N 70°28' W 102°18'0 0.0 1016.6 2.3
2018-Jun-22 17:30N 70°28' W 102°18'0 1.2 1016.5 1.4
2018-Jun-22 17:20N 70°28' W 102°19'0 0.2 1016.3 1.5
2018-Jun-22 16:30N 70°28' W 102°18'0 0.0 1016.1 2.6
2018-Jun-22 16:20N 70°28' W 102°18'0 0.0 1016.1 2.6
2018-Jun-22 15:50N 70°28' W 102°18'0 2.4 1016.1 4.3
2018-Jun-22 15:40N 70°28' W 102°19'0 1.2 1016.1 3.7
2018-Jun-22 15:30N 70°28' W 102°19'0 0.3 1016.1 3.7
2018-Jun-22 14:50N 70°28' W 102°18'0 0.0 1016.2 1.9
2018-Jun-22 14:40N 70°28' W 102°18'0 0.0 1016.2 1.9
2018-Jun-22 14:00N 70°28' W 102°18'0 0.0 1016.3 1.6
2018-Jun-22 13:50N 70°28' W 102°18'0 0.3 1016.3 1.4
2018-Jun-22 13:10N 70°28' W 102°17'0 1.2 1016.2 0.4
2018-Jun-22 13:00N 70°28' W 102°18'0 0.0 1016.2 0.2
2018-Jun-22 12:50N 70°28' W 102°18'0 0.0 1016.2
2018-Jun-22 12:20N 70°28' W 102°18'0 0.0 1015.9 0.3
2018-Jun-22 12:10N 70°28' W 102°18'0 0.0 1015.8 0.4
2018-Jun-22 12:00N 70°28' W 102°18'0 0.0 0.4
2018-Jun-22 11:30N 70°28' W 102°18'0 1.2 1015.8 0.8
2018-Jun-22 11:20N 70°28' W 102°19'0 0.2 1015.8 0.7
2018-Jun-22 10:30N 70°28' W 102°18'0 0.0 1015.7 0.5
2018-Jun-22 09:50N 70°28' W 102°18'0 0.0 1015.4 0.6
2018-Jun-22 09:40N 70°28' W 102°18'0 0.0 1015.4 0.6
2018-Jun-22 09:00N 70°28' W 102°18'0 0.0 1015.2 0.5
2018-Jun-22 08:50N 70°28' W 102°18'0 0.2 1015.2 0.5
2018-Jun-22 08:00N 70°28' W 102°17'0 0.6 1015.2 0.3
2018-Jun-22 07:40N 70°28' W 102°18'0 0.0 1015.2 0.2
2018-Jun-22 07:20N 70°28' W 102°18'0 0.0 1015.2 -0.0
2018-Jun-22 07:10N 70°28' W 102°18'0 0.0 1015.2 -0.0
2018-Jun-22 06:00N 70°28' W 102°18'0 0.0 1014.8 0.1
2018-Jun-22 05:40N 70°28' W 102°18'0 0.0 1014.8 -0.1
2018-Jun-22 05:30N 70°28' W 102°18'0 0.0 1014.8 -0.1
2018-Jun-22 05:20N 70°28' W 102°18'0 0.0 1014.8 -0.1
2018-Jun-22 04:30N 70°28' W 102°18'0 0.0 1014.6 -0.0
2018-Jun-22 04:20N 70°28' W 102°18'0 0.0 1014.6 -0.0
2018-Jun-22 04:00N 70°28' W 102°18'0 0.0 1014.6 0.1
2018-Jun-22 03:50N 70°28' W 102°18'0 0.0 1014.6 0.1
2018-Jun-22 03:40N 70°28' W 102°18'0 0.0 1014.6 0.4
2018-Jun-22 03:30N 70°28' W 102°18'0 0.0 1014.6 0.4
2018-Jun-22 02:50N 70°28' W 102°18'0 1.2 1014.8 0.4
2018-Jun-22 02:40N 70°28' W 102°19'0 0.0 1014.8 0.3
2018-Jun-22 02:30N 70°28' W 102°19'0 1.2 1014.8 0.4
2018-Jun-22 02:20N 70°28' W 102°18'0 1.2 1014.8 0.6
2018-Jun-22 02:10N 70°28' W 102°19'0 1.2 1014.8 1.1
2018-Jun-22 02:00N 70°28' W 102°18'0 1.2 1015.0 2.4
2018-Jun-22 01:50N 70°28' W 102°17'0 0.0 1015.0 2.4
2018-Jun-22 01:10N 70°28' W 102°17'0 1.2 1015.1 3.1
2018-Jun-22 01:00N 70°28' W 102°18'0 0.0 1015.1 3.1
2018-Jun-22 00:50N 70°28' W 102°18'0 0.0 1015.0 3.3
2018-Jun-22 00:40N 70°28' W 102°18'0 0.0 1015.0 3.4
2018-Jun-22 00:30N 70°28' W 102°18'1 3.8 1015.0 3.1
2018-Jun-22 00:20N 70°28' W 102°19'1 3.8 1014.8 2.6
2018-Jun-22 00:10N 70°28' W 102°18'0 0.0 1014.8 2.6
2018-Jun-21 23:30N 70°28' W 102°18'1 4.8 1014.8 3.7
2018-Jun-21 23:20N 70°28' W 102°16'1 4.8 1014.7 3.6
2018-Jun-21 23:10N 70°28' W 102°18'0 0.0 1014.7 3.6
2018-Jun-21 23:00N 70°28' W 102°18'0 0.0 1014.8 3.8
2018-Jun-21 22:50N 70°28' W 102°18'0 0.0 1014.8 3.5
2018-Jun-21 22:40N 70°28' W 102°18'0 0.0 1014.8 3.3
2018-Jun-21 22:30N 70°28' W 102°18'0 0.0 1014.8 2.8
2018-Jun-21 21:50N 70°28' W 102°18'0 1.2 1014.8 2.3
2018-Jun-21 21:40N 70°28' W 102°17'0 1.2 1014.8 2.5
2018-Jun-21 21:30N 70°28' W 102°18'0 0.0 1015.0 2.5
2018-Jun-21 21:10N 70°28' W 102°18'0 0.0 1015.0 2.8
2018-Jun-21 21:00N 70°28' W 102°18'0 0.0 1015.0 2.8
2018-Jun-21 20:50N 70°28' W 102°18'0 0.0 1015.0
2018-Jun-21 20:00N 70°28' W 102°18'0 0.0 1014.8 2.6
2018-Jun-21 19:50N 70°28' W 102°18'0 0.0 1014.8 2.6
2018-Jun-21 19:30N 70°28' W 102°18'0 0.0 1015.0 2.6
2018-Jun-21 19:20N 70°28' W 102°18'0 1.2 1015.0 2.5
2018-Jun-21 19:10N 70°28' W 102°17'0 0.3 1015.0 2.5
2018-Jun-21 18:30N 70°28' W 102°18'0 0.0 1014.7 2.3
2018-Jun-21 18:20N 70°28' W 102°18'0 0.0 1014.7
2018-Jun-21 18:10N 70°28' W 102°18'0 0.0 1014.7 2.4
2018-Jun-21 17:50N 70°28' W 102°18'0 0.0 1014.6 1.9
2018-Jun-21 17:40N 70°28' W 102°18'0 0.0 1014.4 1.7
2018-Jun-21 17:30N 70°28' W 102°18'0 0.0 1014.4 1.7
2018-Jun-21 16:50N 70°28' W 102°18'0 0.0 1014.6 0.8
2018-Jun-21 16:40N 70°28' W 102°18'0 0.0 1014.6 0.8
2018-Jun-21 16:30N 70°28' W 102°18'0 0.0 1014.6 0.6
2018-Jun-21 16:10N 70°28' W 102°18'0 0.0 1014.4 0.9
2018-Jun-21 16:00N 70°28' W 102°18'0 1.2 1014.3 1.0
2018-Jun-21 15:50N 70°28' W 102°19'0 0.4 1014.3 1.0
2018-Jun-21 15:20N 70°28' W 102°18'0 0.0 1014.3 1.1
2018-Jun-21 15:10N 70°28' W 102°18'0 0.0 1014.3 1.1
2018-Jun-21 15:00N 70°28' W 102°18'0 0.0 1014.2 1.3
2018-Jun-21 14:50N 70°28' W 102°18'0 0.0 1014.2 1.3
2018-Jun-21 14:20N 70°28' W 102°18'0 0.0 1014.0 0.3
2018-Jun-21 14:10N 70°28' W 102°18'0 0.2 1014.0 0.3
2018-Jun-21 13:20N 70°28' W 102°17'1 4.3 1013.7 0.3
2018-Jun-21 13:10N 70°28' W 102°16'1 2.5 1013.9 0.2
2018-Jun-21 12:50N 70°28' W 102°18'0 0.0 1013.7 0.1
2018-Jun-21 12:40N 70°28' W 102°18'0 0.0 1013.6 0.1
2018-Jun-21 12:30N 70°28' W 102°18'0 0.0 1013.6 0.1
2018-Jun-21 11:50N 70°28' W 102°18'0 0.0 1013.5 -0.0
2018-Jun-21 11:40N 70°28' W 102°18'0 0.0 1013.3 -0.0
2018-Jun-21 11:30N 70°28' W 102°18'0 0.0 1013.3 -0.0
2018-Jun-21 11:10N 70°28' W 102°18'0 1.2 1013.2 -0.2
2018-Jun-21 11:00N 70°28' W 102°19'0 0.0 1013.2 -0.2
2018-Jun-21 10:10N 70°28' W 102°19'0 1.2 1012.5 -0.2
2018-Jun-21 10:00N 70°28' W 102°18'0 0.0 1012.5 -0.2
2018-Jun-21 09:50N 70°28' W 102°18'0 0.0 1012.5 -0.2
2018-Jun-21 09:30N 70°28' W 102°18'0 0.0 1012.2 -0.3
2018-Jun-21 09:20N 70°28' W 102°18'0 0.0 1012.2 -0.3
2018-Jun-21 08:10N 70°28' W 102°18'0 0.0 1011.7 -0.0
2018-Jun-21 07:50N 70°28' W 102°18'0 0.0 1011.6 -0.0
2018-Jun-21 07:40N 70°28' W 102°18'0 0.0 1011.6 -0.0
2018-Jun-21 06:20N 70°28' W 102°18'0 0.0 1010.7 0.1
2018-Jun-21 06:10N 70°28' W 102°18'0 0.0 1010.7 0.1
2018-Jun-21 06:00N 70°28' W 102°18'0 0.0 1010.7 0.1
2018-Jun-21 05:40N 70°28' W 102°18'0 0.0 1010.5 0.2
2018-Jun-21 05:30N 70°28' W 102°18'0 0.0 1010.5 0.2
2018-Jun-21 05:00N 70°28' W 102°18'0 0.0 1010.0 0.3
2018-Jun-21 04:40N 70°28' W 102°18'0 0.0 1010.0 0.3
2018-Jun-21 04:30N 70°28' W 102°18'0 0.0 1009.9 0.3
2018-Jun-21 04:20N 70°28' W 102°18'0 0.0 1009.9 0.3
2018-Jun-21 04:00N 70°28' W 102°18'0 0.0 1009.5 0.4
2018-Jun-21 03:50N 70°28' W 102°18'0 1.2 1009.5 0.4
2018-Jun-21 03:40N 70°28' W 102°17'0 0.0 1009.4 0.4
2018-Jun-21 03:10N 70°28' W 102°17'0 1.2 1009.2 0.9
2018-Jun-21 03:00N 70°28' W 102°18'0 0.0 1009.2 1.0
2018-Jun-21 02:50N 70°28' W 102°18'0 0.0 1009.2 1.1
2018-Jun-21 02:40N 70°28' W 102°18'0 0.0 1009.2 1.2
2018-Jun-21 02:20N 70°28' W 102°18'0 0.0 1009.1 1.4
2018-Jun-21 02:10N 70°28' W 102°18'0 1.2 1009.1 1.4
2018-Jun-21 02:00N 70°28' W 102°17'0 0.4 1009.0 1.4
2018-Jun-21 01:30N 70°28' W 102°18'0 0.0
2018-Jun-21 01:20N 70°28' W 102°18'0 0.0 1008.7 1.6
2018-Jun-21 01:10N 70°28' W 102°18'0 0.0 1008.7 1.6
2018-Jun-21 01:00N 70°28' W 102°18'1 3.5 1008.5 1.6
2018-Jun-21 00:40N 70°29' W 102°15'1 7.0 1008.4 1.5
2018-Jun-21 00:30N 70°28' W 102°18'0 1.2 1008.4 1.7
2018-Jun-21 00:20N 70°28' W 102°17'0 0.0 1.7
2018-Jun-21 00:00N 70°28' W 102°17'1 3.8 1008.1 1.7
2018-Jun-20 23:50N 70°28' W 102°18'0 0.0 1008.1 1.7
2018-Jun-20 23:40N 70°28' W 102°18'0 0.0 1008.0 1.6
2018-Jun-20 23:30N 70°28' W 102°18'1 3.6 1008.0 1.6
2018-Jun-20 23:20N 70°28' W 102°18'0 0.0 1008.0 1.6
2018-Jun-20 23:00N 70°28' W 102°18'0 0.0 1007.9 1.6
2018-Jun-20 22:50N 70°28' W 102°18'0 0.0 1007.7 1.5
2018-Jun-20 22:40N 70°28' W 102°18'0 0.0 1007.7 1.5
2018-Jun-20 22:20N 70°28' W 102°18'0 1.2 1007.6 1.7
2018-Jun-20 22:10N 70°28' W 102°17'0 0.0 1007.6
2018-Jun-20 22:00N 70°28' W 102°17'0 0.0 1007.4 1.7
2018-Jun-20 21:50N 70°28' W 102°17'0 0.0 1007.6 1.7
2018-Jun-20 21:40N 70°28' W 102°17'0 0.0 1007.6 1.7
2018-Jun-20 21:30N 70°28' W 102°17'0 1.2 1007.2 1.7
2018-Jun-20 21:20N 70°28' W 102°18'0 0.0 1007.2 1.6
2018-Jun-20 21:10N 70°28' W 102°18'0 0.0 1007.2 1.6
2018-Jun-20 21:00N 70°28' W 102°18'0 0.0 1007.2 1.6
2018-Jun-20 20:40N 70°28' W 102°18'0 0.0 1007.0 1.5
2018-Jun-20 20:30N 70°28' W 102°18'0 0.0 1007.0 1.5
2018-Jun-20 20:20N 70°28' W 102°18'0 0.0 1006.9 1.8
2018-Jun-20 20:10N 70°28' W 102°18'0 0.0 1006.9 1.8
2018-Jun-20 20:00N 70°28' W 102°18'0 0.0 1006.8 1.8
2018-Jun-20 19:50N 70°28' W 102°18'0 0.0 1006.6 1.6
2018-Jun-20 19:40N 70°28' W 102°18'0 0.0 1006.6 1.6
2018-Jun-20 19:30N 70°28' W 102°18'0 0.0 1006.6 1.5
2018-Jun-20 19:20N 70°28' W 102°18'0 0.0 1006.6 1.5
2018-Jun-20 19:00N 70°28' W 102°18'0 0.0 1006.8 1.4
2018-Jun-20 18:50N 70°28' W 102°18'0 0.0 1006.8 1.4
2018-Jun-20 18:30N 70°28' W 102°18'0 0.0 1006.6 1.2
2018-Jun-20 18:20N 70°28' W 102°18'0 0.0 1006.6 1.2
2018-Jun-20 18:10N 70°28' W 102°18'0 0.0 1006.6 1.6
2018-Jun-20 18:00N 70°28' W 102°18'0 0.0 1006.5 1.4
2018-Jun-20 17:50N 70°28' W 102°18'1 3.8 1006.4 1.8
2018-Jun-20 17:40N 70°28' W 102°17'1 1.9 1006.4 1.8
2018-Jun-20 17:20N 70°28' W 102°18'0 0.0 1006.2 1.9
2018-Jun-20 17:10N 70°28' W 102°18'0 0.6 1006.2 1.9
2018-Jun-20 16:50N 70°28' W 102°17'0 0.0 1006.1 1.6
2018-Jun-20 16:40N 70°28' W 102°17'0 1.2 1006.1
2018-Jun-20 16:30N 70°28' W 102°18'0 0.0 1005.9 1.8
2018-Jun-20 16:20N 70°28' W 102°18'0 0.0 1005.8 1.8
2018-Jun-20 16:10N 70°28' W 102°18'0 0.0 1005.8 1.8
2018-Jun-20 16:00N 70°28' W 102°18'0 0.0 1005.8 1.8
2018-Jun-20 15:40N 70°28' W 102°18'0 0.0 1005.7 1.4
2018-Jun-20 15:30N 70°28' W 102°18'0 0.0 1005.7 1.4
2018-Jun-20 15:10N 70°28' W 102°18'0 0.0 1005.5 1.0
2018-Jun-20 15:00N 70°28' W 102°18'0 0.0 1005.5 1.1
2018-Jun-20 14:50N 70°28' W 102°18'0 0.0 1005.5 1.1
2018-Jun-20 14:40N 70°28' W 102°18'0 0.0 1005.3 1.1
2018-Jun-20 14:30N 70°28' W 102°18'0 0.0 1005.4 1.1
2018-Jun-20 14:20N 70°28' W 102°18'0 0.0 1005.4 1.1
2018-Jun-20 14:00N 70°28' W 102°18'0 0.0 1005.1 0.8
2018-Jun-20 13:30N 70°28' W 102°18'0 0.0 1005.0 1.1
2018-Jun-20 13:20N 70°28' W 102°18'0 0.0 1005.0 1.1
2018-Jun-20 13:10N 70°28' W 102°18'0 0.0
2018-Jun-20 12:40N 70°28' W 102°18'0 0.0 1004.7 1.3
2018-Jun-20 12:20N 70°28' W 102°18'0 0.0 1004.4 1.2
2018-Jun-20 12:10N 70°28' W 102°18'0 0.6 1004.4 1.2
2018-Jun-20 11:50N 70°28' W 102°19'0 0.0 1004.0 1.1
2018-Jun-20 11:40N 70°28' W 102°19'1 4.3 1004.0 1.1
2018-Jun-20 11:30N 70°28' W 102°17'0 0.0 1003.9 1.0
2018-Jun-20 11:00N 70°28' W 102°17'0 0.0 1003.1 0.9
2018-Jun-20 10:40N 70°28' W 102°17'0 0.0 1002.7 1.0
2018-Jun-20 10:30N 70°28' W 102°17'1 1.9 1002.7 1.0
2018-Jun-20 10:10N 70°28' W 102°18'0 0.0 1002.1 1.3
2018-Jun-20 10:00N 70°28' W 102°18'0 0.0 1002.1 1.3
2018-Jun-20 09:50N 70°28' W 102°18'0 0.2 1001.8 1.7
2018-Jun-20 08:30N 70°28' W 102°17'0 0.0 1001.4 1.4
2018-Jun-20 08:20N 70°28' W 102°17'0 1.2 1001.4 1.4
2018-Jun-20 08:10N 70°28' W 102°18'0 0.0 1001.4 1.1
2018-Jun-20 06:50N 70°28' W 102°18'0 0.0 1002.4 1.2
2018-Jun-20 06:40N 70°28' W 102°18'0 0.0 1002.4 1.2
2018-Jun-20 06:30N 70°28' W 102°18'0 0.0 1002.5 1.3
2018-Jun-20 06:00N 70°28' W 102°18'0 0.0 1003.1 1.4
2018-Jun-20 05:40N 70°28' W 102°18'0 0.0 1003.3 1.4
2018-Jun-20 05:20N 70°28' W 102°18'0 0.0 1003.6 1.5
2018-Jun-20 05:10N 70°28' W 102°18'0 0.0 1004.0 1.7
2018-Jun-20 05:00N 70°28' W 102°18'0 0.0 1004.0
2018-Jun-20 04:50N 70°28' W 102°18'0 0.0 1004.0 1.8
2018-Jun-20 04:20N 70°28' W 102°18'0 0.0 1004.6 1.7
2018-Jun-20 04:00N 70°28' W 102°18'0 0.0 1005.1 1.9
2018-Jun-20 03:30N 70°28' W 102°18'0 0.0 1005.4 1.9
2018-Jun-20 03:20N 70°28' W 102°18'0 0.0 1005.4 1.9
2018-Jun-20 03:10N 70°28' W 102°18'0 0.0 1005.5 1.9
2018-Jun-20 02:40N 70°28' W 102°18'0 0.0 1006.2 2.4
2018-Jun-20 02:20N 70°28' W 102°18'0 0.0 1006.5 2.7
2018-Jun-20 02:00N 70°28' W 102°18'0 0.0 1006.8 2.9
2018-Jun-20 01:50N 70°28' W 102°18'0 0.0 1006.8
2018-Jun-20 01:40N 70°28' W 102°18'0 0.0 1006.8 3.1
2018-Jun-20 01:30N 70°28' W 102°18'0 0.0 1007.2 3.2
2018-Jun-20 01:20N 70°28' W 102°18'0 0.6 1007.2 3.2
2018-Jun-20 01:00N 70°28' W 102°19'0 0.0 1007.4 3.3
2018-Jun-20 00:40N 70°28' W 102°19'0 2.4 1007.7 3.5
2018-Jun-20 00:30N 70°28' W 102°17'0 0.0 1007.7 3.5
2018-Jun-20 00:20N 70°28' W 102°17'0 0.6 1007.9 3.7
2018-Jun-20 00:00N 70°28' W 102°18'0 1.2 1008.0 3.7
2018-Jun-19 23:50N 70°28' W 102°17'0 1.2 1008.1 4.1
2018-Jun-19 23:40N 70°28' W 102°18'0 0.0 1008.1 4.1
2018-Jun-19 23:20N 70°28' W 102°18'0 0.0 1008.5 4.4
2018-Jun-19 23:00N 70°28' W 102°18'0 0.0 1008.7 4.8
2018-Jun-19 22:50N 70°28' W 102°18'0 0.0 1008.7 4.8
2018-Jun-19 22:40N 70°28' W 102°18'0 1.2 1008.8 4.9
2018-Jun-19 22:30N 70°28' W 102°17'0 0.0 1009.0 5.4
2018-Jun-19 22:20N 70°28' W 102°17'0 0.6 1009.1
2018-Jun-19 22:00N 70°28' W 102°18'0 0.0 1009.2 8.2
2018-Jun-19 21:50N 70°28' W 102°18'0 1.2 1009.4 8.5
2018-Jun-19 21:40N 70°28' W 102°17'0 0.0 1009.4 8.7
2018-Jun-19 21:20N 70°28' W 102°17'0 1.2 1009.5 8.2
2018-Jun-19 21:10N 70°28' W 102°18'0 0.0 1009.5 8.2
2018-Jun-19 21:00N 70°28' W 102°18'0 0.0 1009.6 8.2
2018-Jun-19 20:50N 70°28' W 102°18'0 0.0 1009.8 8.4
2018-Jun-19 20:40N 70°28' W 102°18'0 0.0 1009.8
2018-Jun-19 20:20N 70°28' W 102°18'0 0.0 1009.8 8.5
2018-Jun-19 20:10N 70°28' W 102°18'0 0.0 1009.9
2018-Jun-19 20:00N 70°28' W 102°18'0 0.0 1010.0 7.3
2018-Jun-19 19:40N 70°28' W 102°18'0 0.0 1010.0 7.7
2018-Jun-19 19:30N 70°28' W 102°18'0 0.0 1010.2 7.4
2018-Jun-19 19:20N 70°28' W 102°18'0 0.0 1010.2 7.5
2018-Jun-19 18:40N 70°28' W 102°18'0 0.0 1010.3 7.5
2018-Jun-19 18:30N 70°28' W 102°18'0 0.0 1010.3 7.5
2018-Jun-19 18:20N 70°28' W 102°18'0 0.0 1010.6 7.1
2018-Jun-19 18:00N 70°28' W 102°18'0 0.0 1010.7 6.7
2018-Jun-19 17:50N 70°28' W 102°18'0 0.2 1010.7 6.7
2018-Jun-19 17:00N 70°28' W 102°17'0 1.2 1011.0 6.5
2018-Jun-19 16:50N 70°28' W 102°18'0 0.0 1011.0
2018-Jun-19 16:40N 70°28' W 102°18'0 0.0
2018-Jun-19 16:20N 70°28' W 102°18'0 0.0 1011.1 6.5
2018-Jun-19 16:10N 70°28' W 102°18'0 0.0 1011.3 6.1
2018-Jun-19 16:00N 70°28' W 102°18'0 1.2 1011.4 5.9
2018-Jun-19 15:50N 70°28' W 102°17'0 1.2 1011.6
2018-Jun-19 15:30N 70°28' W 102°19'0 1.2 1011.7 6.8
2018-Jun-19 15:20N 70°28' W 102°18'0 0.0 1011.7 6.8
2018-Jun-19 15:00N 70°28' W 102°18'0 0.0 1012.0 6.2
2018-Jun-19 14:40N 70°28' W 102°18'0 0.0 1012.1 5.3
2018-Jun-19 14:30N 70°28' W 102°18'0 0.0 1012.1 5.3
2018-Jun-19 14:00N 70°28' W 102°18'0 0.0 1012.2
2018-Jun-19 13:50N 70°28' W 102°18'0 1.2 1012.4 5.3
2018-Jun-19 13:40N 70°28' W 102°17'0 0.0 1012.4 5.3
2018-Jun-19 13:00N 70°28' W 102°17'0 0.0 1012.9 3.2
2018-Jun-19 12:50N 70°28' W 102°17'0 1.2 1012.9 3.2
2018-Jun-19 12:40N 70°28' W 102°18'0 0.0 1012.9 2.8
2018-Jun-19 12:10N 70°28' W 102°18'0 1.2 1013.1 1.7
2018-Jun-19 12:00N 70°28' W 102°19'0 1.2 1013.1
2018-Jun-19 11:50N 70°28' W 102°18'0 0.3 1013.1 1.5
2018-Jun-19 11:10N 70°28' W 102°19'0 0.0 1012.9 1.0
2018-Jun-19 11:00N 70°28' W 102°19'0 0.4 1013.1 1.0
2018-Jun-19 10:30N 70°28' W 102°18'0 0.0 1013.1 0.4
2018-Jun-19 10:20N 70°28' W 102°18'0 0.0 1013.1 0.4
2018-Jun-19 10:10N 70°28' W 102°18'0 0.0 1013.1 0.4
2018-Jun-19 08:50N 70°28' W 102°18'0 1.2 1013.1 0.6
2018-Jun-19 08:40N 70°28' W 102°17'0 0.0 1013.1 0.6
2018-Jun-19 08:30N 70°28' W 102°17'1 0.5 1013.1 0.6
2018-Jun-19 07:10N 70°28' W 102°19'0 0.0 1013.1 0.5
2018-Jun-19 07:00N 70°28' W 102°19'1 1.4 1013.1 0.5
2018-Jun-19 06:30N 70°28' W 102°17'0 0.0 1013.1 0.7
2018-Jun-19 06:00N 70°28' W 102°17'0 1.2 1012.9
2018-Jun-19 05:50N 70°28' W 102°18'0 0.0 1012.9 0.7
2018-Jun-19 05:30N 70°28' W 102°18'0 0.0 1012.9 0.8
2018-Jun-19 05:20N 70°28' W 102°18'0 0.0 1012.9 0.8
2018-Jun-19 04:40N 70°28' W 102°18'1 1.3 1012.9 0.8
2018-Jun-19 04:10N 70°28' W 102°19'0 0.0 1012.8 1.0
2018-Jun-19 04:00N 70°28' W 102°19'1 3.8 1012.8 1.2
2018-Jun-19 03:50N 70°28' W 102°18'0 0.0 1012.8 1.3
2018-Jun-19 03:40N 70°28' W 102°18'0 0.0 1012.9 1.1
2018-Jun-19 03:10N 70°28' W 102°18'0 0.0 1013.1 1.3
2018-Jun-19 03:00N 70°28' W 102°18'0 0.0 1013.1 1.6
2018-Jun-19 02:30N 70°28' W 102°18'0 0.0 1013.1 2.4
2018-Jun-19 02:20N 70°28' W 102°18'0 0.0 1013.1 2.4
2018-Jun-19 02:10N 70°28' W 102°18'0 0.0
2018-Jun-19 02:00N 70°28' W 102°18'0 0.0 1012.9 2.6
2018-Jun-19 01:40N 70°28' W 102°18'0 0.0 1013.1 1.7
2018-Jun-19 01:30N 70°28' W 102°18'0 0.0 1012.9 1.6
2018-Jun-19 01:20N 70°28' W 102°18'0 0.0 1012.9 1.6
2018-Jun-19 00:50N 70°28' W 102°18'0 0.0 1013.1 1.7
2018-Jun-19 00:40N 70°28' W 102°18'0 0.0 1013.1 1.9
2018-Jun-19 00:30N 70°28' W 102°18'0 0.0 1013.1 1.9
2018-Jun-19 00:20N 70°28' W 102°18'0 0.0 1012.9 1.9
2018-Jun-19 00:00N 70°28' W 102°18'1 3.8 1012.9 2.1
2018-Jun-18 23:50N 70°28' W 102°17'1 3.8 1012.9 2.1
2018-Jun-18 23:40N 70°28' W 102°18'0 0.0 1012.9 2.0
2018-Jun-18 23:10N 70°28' W 102°18'0 1.2 1012.5 1.9
2018-Jun-18 23:00N 70°28' W 102°17'0 0.0 1012.5 1.9
2018-Jun-18 22:50N 70°28' W 102°17'0 1.2 1012.5 1.9
2018-Jun-18 22:40N 70°28' W 102°18'0 0.0 1012.4 2.0
2018-Jun-18 22:20N 70°28' W 102°18'0 1.2 1012.4 1.9
2018-Jun-18 22:10N 70°28' W 102°17'0 1.2 1012.2 2.1
2018-Jun-18 22:00N 70°28' W 102°18'0 0.0 1012.2 2.2
2018-Jun-18 21:30N 70°28' W 102°18'0 0.0 1012.1 2.6
2018-Jun-18 21:10N 70°28' W 102°18'0 0.0 1012.0
2018-Jun-18 21:00N 70°28' W 102°18'0 0.0 1012.0 2.7
2018-Jun-18 20:40N 70°28' W 102°18'0 0.0 1011.8 2.9
2018-Jun-18 20:30N 70°28' W 102°18'0 0.0 1011.8 3.1
2018-Jun-18 20:20N 70°28' W 102°18'0 0.0 1011.8
2018-Jun-18 19:50N 70°28' W 102°18'0 0.0 1011.7 3.0
2018-Jun-18 19:40N 70°28' W 102°18'0 0.0 1011.7 2.8
2018-Jun-18 19:00N 70°28' W 102°18'0 0.0 1011.3 2.4
2018-Jun-18 18:50N 70°28' W 102°18'0 0.0 1011.3 2.4
2018-Jun-18 18:40N 70°28' W 102°18'1 1.3 2.4
2018-Jun-18 18:10N 70°28' W 102°17'0 0.0 1010.7 2.5
2018-Jun-18 18:00N 70°28' W 102°17'1 4.3 1010.7 2.5
2018-Jun-18 17:50N 70°28' W 102°19'0 0.3 1010.7 2.4
2018-Jun-18 17:10N 70°28' W 102°18'0 0.0 1010.5 2.0
2018-Jun-18 17:00N 70°28' W 102°18'0 0.4 1010.5 2.0
2018-Jun-18 16:30N 70°28' W 102°19'0 0.0 1010.2 1.6
2018-Jun-18 16:20N 70°28' W 102°19'0 0.0 1010.0 1.6
2018-Jun-18 16:00N 70°28' W 102°19'0 0.6 1009.9 1.6
2018-Jun-18 15:40N 70°28' W 102°18'0 0.0 1010.0 1.1
2018-Jun-18 15:30N 70°28' W 102°18'0 0.0 1010.0 1.1
2018-Jun-18 15:20N 70°28' W 102°18'0 0.0 1009.9
2018-Jun-18 14:50N 70°28' W 102°18'0 0.0 1009.6 0.9
2018-Jun-18 14:40N 70°28' W 102°18'0 0.6 1009.6 0.9
2018-Jun-18 14:20N 70°28' W 102°17'0 1.2 1009.6 0.7
2018-Jun-18 14:10N 70°28' W 102°18'0 0.0 1009.6 0.7
2018-Jun-18 14:00N 70°28' W 102°18'0 1.2 1009.5 0.8
2018-Jun-18 13:50N 70°28' W 102°17'0 1.2 1009.5 0.8
2018-Jun-18 13:40N 70°28' W 102°18'0 0.0 1009.5
2018-Jun-18 13:10N 70°28' W 102°18'0 0.0 1009.2 0.7
2018-Jun-18 13:00N 70°28' W 102°18'0 0.0 1009.2 0.7
2018-Jun-18 12:40N 70°28' W 102°18'0 0.0 1009.1 0.6
2018-Jun-18 12:30N 70°28' W 102°18'0 0.0 1009.1 0.6
2018-Jun-18 12:20N 70°28' W 102°18'0 0.0 1009.1 0.6
2018-Jun-18 12:10N 70°28' W 102°18'1 0.9 1009.1 0.6
2018-Jun-18 11:20N 70°28' W 102°19'0 0.0 1008.8 0.7
2018-Jun-18 11:00N 70°28' W 102°19'1 4.3 1008.7 0.7
2018-Jun-18 10:50N 70°28' W 102°18'0 0.0 1008.7 0.8
2018-Jun-18 10:30N 70°28' W 102°18'0 0.0 1008.5 0.8
2018-Jun-18 10:20N 70°28' W 102°18'0 0.0 1008.5 0.8
2018-Jun-18 09:20N 70°28' W 102°18'0 0.0 1008.0 1.0
2018-Jun-18 09:10N 70°28' W 102°18'0 0.0 1008.0 1.0
2018-Jun-18 08:50N 70°28' W 102°18'0 0.0 1008.0 1.1
2018-Jun-18 08:40N 70°28' W 102°18'0 0.0 1008.0 1.1
2018-Jun-18 07:40N 70°28' W 102°18'0 1.2 1007.7 1.1
2018-Jun-18 07:30N 70°28' W 102°17'0 0.4 1007.7 1.1
2018-Jun-18 07:00N 70°28' W 102°18'0 0.0 1007.7 1.1
2018-Jun-18 06:10N 70°28' W 102°18'0 0.0 1007.4 1.1
2018-Jun-18 06:00N 70°28' W 102°18'0 0.0 1007.4 1.1
2018-Jun-18 05:50N 70°28' W 102°18'0 0.0 1007.4 1.1
2018-Jun-18 05:40N 70°28' W 102°18'0 0.0 1007.4 1.1
2018-Jun-18 05:00N 70°28' W 102°18'0 0.0 1007.3 1.1
2018-Jun-18 04:30N 70°28' W 102°18'0 0.0 1006.9 1.4
2018-Jun-18 04:20N 70°28' W 102°18'0 0.0 1006.9 1.4
2018-Jun-18 04:10N 70°28' W 102°18'0 0.0 1006.8 1.4
2018-Jun-18 04:00N 70°28' W 102°18'0 0.0 1006.6 1.5
2018-Jun-18 03:30N 70°28' W 102°18'0 0.0 1006.4 1.7
2018-Jun-18 03:20N 70°28' W 102°18'0 0.4 1006.4 1.7
2018-Jun-18 02:50N 70°28' W 102°17'0 2.4 1006.2 1.7
2018-Jun-18 02:40N 70°28' W 102°19'0 0.0 1006.2
2018-Jun-18 02:30N 70°28' W 102°19'0 0.0 1006.1 1.6
2018-Jun-18 02:20N 70°28' W 102°19'0 0.0 1006.1 1.6
2018-Jun-18 01:50N 70°28' W 102°19'0 1.2 1006.2 1.7
2018-Jun-18 01:40N 70°28' W 102°18'0 0.0 1006.2 1.7
2018-Jun-18 01:10N 70°28' W 102°18'0 0.0 1006.1 1.6
2018-Jun-18 01:00N 70°28' W 102°18'0 0.0 1006.1 1.7
2018-Jun-18 00:50N 70°28' W 102°18'0 0.0 1006.1 1.7
2018-Jun-18 00:40N 70°28' W 102°18'0 0.0 1006.1 1.7
2018-Jun-18 00:10N 70°28' W 102°18'0 0.0 1005.8 1.8
2018-Jun-18 00:00N 70°28' W 102°18'0 0.0 1005.8 1.8
2018-Jun-17 23:30N 70°28' W 102°18'0 1.2 1005.7 1.9
2018-Jun-17 23:20N 70°28' W 102°17'0 0.0 1005.4 1.8
2018-Jun-17 23:00N 70°28' W 102°17'0 0.0 1005.4 1.8
2018-Jun-17 22:30N 70°28' W 102°17'0 1.2 1005.3 1.7
2018-Jun-17 22:20N 70°28' W 102°18'0 0.0 1005.3 1.7
2018-Jun-17 21:50N 70°28' W 102°18'0 0.0 1005.3 1.7
2018-Jun-17 21:40N 70°28' W 102°18'0 0.0 1005.1 1.7
2018-Jun-17 21:20N 70°28' W 102°18'0 0.0 1005.1 1.5
2018-Jun-17 20:50N 70°28' W 102°18'0 0.0 1004.8 1.0
2018-Jun-17 20:40N 70°28' W 102°18'0 0.0 1004.7 1.2
2018-Jun-17 20:10N 70°28' W 102°18'0 0.0 1004.7 1.3
2018-Jun-17 20:00N 70°28' W 102°18'0 0.0 1004.7 1.0
2018-Jun-17 19:50N 70°28' W 102°18'0 0.0 1004.7 1.2
2018-Jun-17 19:10N 70°28' W 102°18'0 0.0 1004.6 1.0
2018-Jun-17 19:00N 70°28' W 102°18'1 1.8 1004.6 1.0
2018-Jun-17 18:40N 70°28' W 102°18'1 3.6 1004.4 1.1
2018-Jun-17 18:30N 70°28' W 102°18'0 0.0 1004.2 1.2
2018-Jun-17 18:20N 70°28' W 102°18'0 0.0 1004.2 1.2
2018-Jun-17 18:10N 70°28' W 102°18'0 0.0 1004.0 1.1
2018-Jun-17 17:30N 70°28' W 102°18'1 4.3 1004.0 1.1
2018-Jun-17 17:20N 70°28' W 102°17'0 0.0 1003.8 1.1
2018-Jun-17 17:00N 70°28' W 102°17'1 2.2 1003.8 1.1
2018-Jun-17 16:40N 70°28' W 102°18'0 1.2 1003.6 1.0
2018-Jun-17 16:30N 70°28' W 102°17'0 0.3 1.0
2018-Jun-17 15:50N 70°28' W 102°18'0 0.0 1003.2 0.7
2018-Jun-17 15:40N 70°28' W 102°18'0 0.0 1003.2 0.7
2018-Jun-17 15:20N 70°28' W 102°18'0 0.0 1003.2 0.7
2018-Jun-17 15:10N 70°28' W 102°18'0 0.0 1003.2 0.7
2018-Jun-17 15:00N 70°28' W 102°18'0 0.0 1003.5 0.6
2018-Jun-17 14:50N 70°28' W 102°18'0 0.0 1003.5
2018-Jun-17 14:40N 70°28' W 102°18'0 0.0 1003.5 0.6
2018-Jun-17 14:10N 70°28' W 102°18'0 0.0 1003.3 0.8
2018-Jun-17 14:00N 70°28' W 102°18'0 0.0 1003.3 0.8
2018-Jun-17 13:30N 70°28' W 102°18'0 1.2 1003.5 0.7
2018-Jun-17 13:20N 70°28' W 102°19'0 0.0 1003.6 0.8
2018-Jun-17 13:10N 70°28' W 102°19'0 1.2 1003.6 0.8
2018-Jun-17 13:00N 70°28' W 102°18'0 0.0 1003.6 0.8
2018-Jun-17 12:30N 70°28' W 102°18'0 0.0
2018-Jun-17 12:20N 70°28' W 102°18'0 0.4 1003.3 0.7
2018-Jun-17 11:50N 70°28' W 102°17'0 0.6 1003.5 1.0
2018-Jun-17 11:30N 70°28' W 102°18'0 1.2 1003.5 0.7
2018-Jun-17 11:20N 70°28' W 102°17'0 0.4 1003.5 0.7
2018-Jun-17 10:50N 70°28' W 102°18'0 0.0 1003.3 1.0
2018-Jun-17 10:40N 70°28' W 102°18'0 0.0 1003.3 1.0
2018-Jun-17 10:10N 70°28' W 102°18'0 0.0 1003.6 0.6
2018-Jun-17 09:50N 70°28' W 102°18'0 0.0 1003.6 0.5
2018-Jun-17 09:40N 70°28' W 102°18'0 0.0 1003.6 0.5
2018-Jun-17 09:00N 70°28' W 102°18'0 0.0 1003.5 0.6
2018-Jun-17 08:10N 70°28' W 102°18'0 0.0 1003.8 0.8
2018-Jun-17 08:00N 70°28' W 102°18'0 0.0 1003.8 0.8
2018-Jun-17 07:50N 70°28' W 102°18'0 0.0 1003.9 0.9
2018-Jun-17 07:20N 70°28' W 102°18'0 0.0 1003.9 0.7
2018-Jun-17 06:30N 70°28' W 102°18'0 0.0 1004.2 0.9
2018-Jun-17 06:10N 70°28' W 102°18'0 0.0 1004.4 0.7
2018-Jun-17 06:00N 70°28' W 102°18'0 0.0 1004.4 0.7
2018-Jun-17 05:30N 70°28' W 102°18'0 0.0 1005.0 1.0
2018-Jun-17 05:20N 70°28' W 102°18'0 0.0 1005.0 1.0
2018-Jun-17 05:00N 70°28' W 102°18'0 0.0 1005.3
2018-Jun-17 04:50N 70°28' W 102°18'0 0.0 1005.3 1.3
2018-Jun-17 04:30N 70°28' W 102°18'0 0.0 1005.7 1.5
2018-Jun-17 04:20N 70°28' W 102°18'0 0.0 1005.7 1.1
2018-Jun-17 03:50N 70°28' W 102°18'0 1.2 1006.1 1.3
2018-Jun-17 03:40N 70°28' W 102°17'0 0.0 1006.1 1.3
2018-Jun-17 03:20N 70°28' W 102°17'0 1.2 1006.4 1.5
2018-Jun-17 03:10N 70°28' W 102°18'0 0.0 1006.5 1.5
2018-Jun-17 03:00N 70°28' W 102°18'0 0.0 1006.6 1.6
2018-Jun-17 02:50N 70°28' W 102°18'0 1.2
2018-Jun-17 02:40N 70°28' W 102°17'0 0.4 1006.8 1.4
2018-Jun-17 02:10N 70°28' W 102°18'0 0.0 1006.9 1.4
2018-Jun-17 02:00N 70°28' W 102°18'0 0.0 1006.9 1.4
2018-Jun-17 01:40N 70°28' W 102°18'0 1.2 1006.9 1.6
2018-Jun-17 01:30N 70°28' W 102°17'0 0.0 1006.9 1.6
2018-Jun-17 01:20N 70°28' W 102°17'0 0.0 1006.5 1.9
2018-Jun-17 01:10N 70°28' W 102°17'0 1.2 1006.5 1.9
2018-Jun-17 01:00N 70°28' W 102°18'0 0.4 1006.5 1.9
2018-Jun-17 00:30N 70°28' W 102°17'0 0.0 1006.8 2.2
2018-Jun-17 00:20N 70°28' W 102°17'0 1.2 1006.8 2.2
2018-Jun-17 00:10N 70°28' W 102°17'0 0.0 1006.8 2.3
2018-Jun-17 00:00N 70°28' W 102°17'0 0.0 1007.2 2.5
2018-Jun-16 23:50N 70°28' W 102°17'0 2.4 1007.2 2.5
2018-Jun-16 23:40N 70°28' W 102°18'213.0 1007.4 2.5
2018-Jun-16 23:30N 70°27' W 102°23'213.0 1007.6 2.6
2018-Jun-16 23:20N 70°28' W 102°18'0 0.0 1007.6 2.6
2018-Jun-16 22:50N 70°28' W 102°18'0 0.0 1007.2 2.9
2018-Jun-16 22:40N 70°28' W 102°18'0 0.0 1007.2 2.9
2018-Jun-16 22:30N 70°28' W 102°18'0 0.0 1007.0 2.8
2018-Jun-16 22:20N 70°28' W 102°18'0 0.0 1007.3 2.9
2018-Jun-16 22:10N 70°28' W 102°18'0 0.0 1007.3 2.9
2018-Jun-16 21:50N 70°28' W 102°18'0 0.0 1007.7 3.5
2018-Jun-16 21:40N 70°28' W 102°18'0 0.0 1007.7 3.5
2018-Jun-16 21:10N 70°28' W 102°18'0 0.0 1007.9 3.1
2018-Jun-16 21:00N 70°28' W 102°18'0 0.0 1007.6 2.8
2018-Jun-16 20:50N 70°28' W 102°18'0 0.0 1007.6 2.8
2018-Jun-16 20:40N 70°28' W 102°18'0 0.0 1007.3 3.8
2018-Jun-16 20:30N 70°28' W 102°18'0 0.0 1007.3 3.8
2018-Jun-16 20:10N 70°28' W 102°18'0 0.0 1007.2 4.2
2018-Jun-16 20:00N 70°28' W 102°18'0 0.0 1007.3 4.2
2018-Jun-16 19:30N 70°28' W 102°18'0 0.0 1007.4 3.6
2018-Jun-16 19:20N 70°28' W 102°18'0 0.0 1007.6 3.3
2018-Jun-16 19:10N 70°28' W 102°18'0 0.0 1007.6 3.3
2018-Jun-16 19:00N 70°28' W 102°18'0 0.0 1007.4 3.3
2018-Jun-16 18:50N 70°28' W 102°18'0 0.0 1007.3 3.4
2018-Jun-16 18:40N 70°28' W 102°18'0 0.0 1007.0 3.5
2018-Jun-16 18:30N 70°28' W 102°18'0 0.0 1007.0 3.5
2018-Jun-16 17:50N 70°28' W 102°18'0 0.0 1006.6 3.4
2018-Jun-16 17:40N 70°28' W 102°18'0 0.0 1006.6 3.7
2018-Jun-16 17:30N 70°28' W 102°18'0 0.0 1006.6 3.7
2018-Jun-16 17:20N 70°28' W 102°18'0 0.6 1006.4 3.9
2018-Jun-16 17:00N 70°28' W 102°17'0 0.0 1006.1 4.1
2018-Jun-16 16:50N 70°28' W 102°17'0 0.3 1006.1 4.1
2018-Jun-16 16:10N 70°28' W 102°18'0 0.0 1005.8 3.6
2018-Jun-16 16:00N 70°28' W 102°18'0 0.0 1005.8 3.5
2018-Jun-16 15:50N 70°28' W 102°18'0 1.2 1005.8 3.5
2018-Jun-16 15:40N 70°28' W 102°17'0 0.0 1005.8 3.8
2018-Jun-16 15:30N 70°28' W 102°17'0 1.2 1005.7 4.0
2018-Jun-16 15:20N 70°28' W 102°18'0 1.2 1005.8 4.1
2018-Jun-16 15:10N 70°28' W 102°19'0 1.2 1005.8 4.1
2018-Jun-16 15:00N 70°28' W 102°18'0 0.0 1005.8 4.0
2018-Jun-16 14:20N 70°28' W 102°18'0 0.0 1005.8 5.0
2018-Jun-16 14:10N 70°28' W 102°18'0 0.0 1005.9 5.6
2018-Jun-16 14:00N 70°28' W 102°18'0 0.0 1005.7 5.6
2018-Jun-16 13:50N 70°28' W 102°18'0 0.0 1005.7 4.8
2018-Jun-16 13:40N 70°28' W 102°18'0 0.0 1005.7 4.7
2018-Jun-16 13:30N 70°28' W 102°18'0 0.0 1005.7 4.7
2018-Jun-16 13:20N 70°28' W 102°18'0 0.3 1005.8 5.5
2018-Jun-16 12:40N 70°28' W 102°19'0 0.0 1006.1 2.8
2018-Jun-16 12:30N 70°28' W 102°19'0 1.2 1006.1 2.8
2018-Jun-16 12:20N 70°28' W 102°18'0 0.0 1006.1 2.2
2018-Jun-16 12:10N 70°28' W 102°18'0 0.0 1006.1 1.6
2018-Jun-16 12:00N 70°28' W 102°18'0 1.2 1006.2 1.6
2018-Jun-16 11:50N 70°28' W 102°17'0 0.0 1006.4
2018-Jun-16 11:40N 70°28' W 102°17'0 0.3 1006.4 1.3
2018-Jun-16 11:00N 70°28' W 102°18'0 0.0 1006.6 1.0
2018-Jun-16 10:50N 70°28' W 102°18'1 3.6 1006.6 1.0
2018-Jun-16 10:40N 70°29' W 102°18'1 1.8 1006.5 0.9
2018-Jun-16 10:20N 70°28' W 102°18'0 0.0 1006.6 0.9
2018-Jun-16 10:10N 70°28' W 102°18'0 0.0 1006.6 0.9
2018-Jun-16 09:10N 70°28' W 102°18'0 0.0 1007.0 0.9
2018-Jun-16 08:40N 70°28' W 102°18'0 0.0 1007.0 1.0
2018-Jun-16 08:30N 70°28' W 102°18'0 0.4 1007.0 1.0
2018-Jun-16 07:30N 70°28' W 102°17'0 0.8 1007.6 1.0
2018-Jun-16 07:00N 70°28' W 102°18'0 0.0 1007.7 1.1
2018-Jun-16 06:30N 70°28' W 102°18'0 0.0 1007.9 1.1
2018-Jun-16 06:20N 70°28' W 102°18'0 0.0 1008.0 1.1
2018-Jun-16 05:40N 70°28' W 102°18'0 0.0 1008.3 1.1
2018-Jun-16 05:30N 70°28' W 102°18'0 0.0 1008.3 1.1
2018-Jun-16 05:20N 70°28' W 102°18'1 1.3 1008.3 1.1
2018-Jun-16 04:50N 70°28' W 102°17'1 3.8 1008.7 1.1
2018-Jun-16 04:40N 70°28' W 102°18'0 0.4 1008.7 1.1
2018-Jun-16 04:10N 70°28' W 102°17'0 0.0 1009.0 1.1
2018-Jun-16 04:00N 70°28' W 102°17'0 1.2 1009.0 1.1
2018-Jun-16 03:50N 70°28' W 102°18'0 1.2 1009.0 1.2
2018-Jun-16 03:40N 70°28' W 102°17'0 0.4 1009.1 1.2
2018-Jun-16 03:10N 70°28' W 102°18'0 1.2 1009.4 1.3
2018-Jun-16 03:00N 70°28' W 102°19'0 0.0 1009.4 1.4
2018-Jun-16 02:30N 70°28' W 102°19'1 3.6 1009.6
2018-Jun-16 02:20N 70°28' W 102°19'0 0.0
2018-Jun-16 02:10N 70°28' W 102°19'1 3.8 1009.8 1.9
2018-Jun-16 02:00N 70°28' W 102°18'0 0.4 1010.0 1.8
2018-Jun-16 01:30N 70°28' W 102°17'0 1.2 1010.2 2.0
2018-Jun-16 01:20N 70°28' W 102°18'0 0.0 1010.2 2.0
2018-Jun-16 00:50N 70°28' W 102°18'0 0.0 1010.2 2.0
2018-Jun-16 00:40N 70°28' W 102°18'1 3.8 1010.5 2.1
2018-Jun-16 00:30N 70°28' W 102°17'1 3.8 1010.5 2.2
2018-Jun-16 00:20N 70°28' W 102°18'0 0.0 1010.5 2.2
2018-Jun-15 23:50N 70°28' W 102°18'0 0.0 1010.7 3.1
2018-Jun-15 23:40N 70°28' W 102°18'0 0.0 1010.7 3.1
2018-Jun-15 23:10N 70°28' W 102°18'0 0.0 1011.0 3.5
2018-Jun-15 23:00N 70°28' W 102°18'0 0.0 1011.0
2018-Jun-15 22:50N 70°28' W 102°18'0 0.0 1011.0 3.3
2018-Jun-15 22:40N 70°28' W 102°18'0 0.0 1011.0 3.3
2018-Jun-15 22:30N 70°28' W 102°18'0 0.0 1010.9 3.4
2018-Jun-15 22:00N 70°28' W 102°18'0 0.0 1010.9 2.8
2018-Jun-15 21:30N 70°28' W 102°18'1 4.8 1011.1 3.0
2018-Jun-15 21:20N 70°28' W 102°16'0 0.0 1011.1 3.0
2018-Jun-15 21:10N 70°28' W 102°16'1 4.8 1011.1 2.8
2018-Jun-15 21:00N 70°28' W 102°18'0 0.0 1011.1 3.0
2018-Jun-15 20:30N 70°28' W 102°18'0 0.0 1011.4 4.6
2018-Jun-15 20:20N 70°28' W 102°18'0 0.0 1011.4 4.6
2018-Jun-15 19:50N 70°28' W 102°18'0 0.0 1011.6 5.6
2018-Jun-15 19:40N 70°28' W 102°18'0 0.0 1011.7 5.5
2018-Jun-15 19:30N 70°28' W 102°18'0 0.0 1011.7 6.3
2018-Jun-15 19:20N 70°28' W 102°18'0 0.0 1011.7 6.3
2018-Jun-15 18:50N 70°28' W 102°18'0 0.0 1011.8 4.9
2018-Jun-15 18:40N 70°28' W 102°18'1 1.7 1011.8 4.9
2018-Jun-15 18:10N 70°28' W 102°16'1 5.1 1012.0 4.7
2018-Jun-15 18:00N 70°28' W 102°18'0 0.0 1012.0 4.7
2018-Jun-15 17:50N 70°28' W 102°18'0 0.0 1012.0 5.6
2018-Jun-15 17:40N 70°28' W 102°18'0 0.0 1012.0 5.6
2018-Jun-15 17:10N 70°28' W 102°18'0 1.2 1012.0 5.0
2018-Jun-15 17:00N 70°28' W 102°17'0 0.4 1012.0 5.0
2018-Jun-15 16:30N 70°28' W 102°18'0 0.0 1012.2 4.4
2018-Jun-15 16:20N 70°28' W 102°18'1 5.1 1012.2 4.4
2018-Jun-15 16:10N 70°28' W 102°16'0 0.0 1012.2 4.4
2018-Jun-15 16:00N 70°28' W 102°16'1 6.0 1012.2 4.4
2018-Jun-15 15:50N 70°28' W 102°19'0 0.6 1012.1 4.0
2018-Jun-15 15:30N 70°28' W 102°18'0 0.0 1012.4 4.6
2018-Jun-15 15:20N 70°28' W 102°18'0 0.0 1012.4 4.6
2018-Jun-15 14:50N 70°28' W 102°18'0 0.0 1012.4 4.9
2018-Jun-15 14:40N 70°28' W 102°18'0 0.0 1012.4 4.9
2018-Jun-15 14:30N 70°28' W 102°18'0 0.0 1012.5 5.0
2018-Jun-15 14:20N 70°28' W 102°18'0 0.0 1012.5 5.0
2018-Jun-15 14:10N 70°28' W 102°18'0 0.0 1012.6 4.3
2018-Jun-15 13:40N 70°28' W 102°18'0 0.0 1012.9 3.4
2018-Jun-15 12:50N 70°28' W 102°18'0 0.0 1013.1 2.8
2018-Jun-15 12:40N 70°28' W 102°18'0 0.0 1013.1 2.6
2018-Jun-15 12:30N 70°28' W 102°18'0 0.0 1013.2 2.9
2018-Jun-15 12:20N 70°28' W 102°18'0 0.0 1013.2 2.9
2018-Jun-15 12:00N 70°28' W 102°18'0 0.0 1013.3 2.0
2018-Jun-15 11:10N 70°28' W 102°18'0 0.0 1013.3 1.6
2018-Jun-15 11:00N 70°28' W 102°18'0 0.0 1013.3 1.6
2018-Jun-15 10:50N 70°28' W 102°18'0 0.0 1013.3 1.6
2018-Jun-15 10:40N 70°28' W 102°18'0 0.0 1013.3 1.6
2018-Jun-15 09:30N 70°28' W 102°18'0 0.0 1013.9 0.8
2018-Jun-15 09:20N 70°28' W 102°18'0 0.0 1013.9 0.8
2018-Jun-15 09:10N 70°28' W 102°18'0 0.0 1014.0 0.5
2018-Jun-15 09:00N 70°28' W 102°18'0 0.0 1014.0 0.2
2018-Jun-15 07:40N 70°28' W 102°18'0 0.0 1014.2 0.1
2018-Jun-15 07:30N 70°28' W 102°18'1 0.9 1014.4 0.1
2018-Jun-15 06:50N 70°28' W 102°19'1 0.8 1014.4 0.3
2018-Jun-15 06:00N 70°28' W 102°18'0 0.0 1014.7 0.4
2018-Jun-15 05:50N 70°28' W 102°18'0 0.0 1014.7 0.4
2018-Jun-15 05:10N 70°28' W 102°18'1 3.8 1015.0 0.3
2018-Jun-15 05:00N 70°28' W 102°17'1 0.9 1015.0 0.3
2018-Jun-15 04:20N 70°28' W 102°18'0 0.0 1014.8 0.5
2018-Jun-15 04:10N 70°28' W 102°18'0 0.0 1015.0 0.5
2018-Jun-15 03:30N 70°28' W 102°18'0 0.0 1015.0 0.6
2018-Jun-15 03:20N 70°28' W 102°18'0 1.2 1015.1 0.7
2018-Jun-15 03:10N 70°28' W 102°17'0 0.0 1015.1 0.7
2018-Jun-15 02:50N 70°28' W 102°17'0 1.2 1015.0 0.7
2018-Jun-15 02:40N 70°28' W 102°18'0 0.0 0.8
2018-Jun-15 02:30N 70°28' W 102°18'0 0.0 1015.0 0.7
2018-Jun-15 02:20N 70°28' W 102°18'0 0.3 1015.0 0.7
2018-Jun-15 01:40N 70°28' W 102°17'0 0.0 1015.4 0.6
2018-Jun-15 01:30N 70°28' W 102°17'0 0.6 1015.4 0.6
2018-Jun-15 01:10N 70°28' W 102°18'0 0.0 1015.5
2018-Jun-15 01:00N 70°28' W 102°18'0 0.0 1015.5 0.9
2018-Jun-15 00:50N 70°28' W 102°18'0 0.0 1015.9 1.1
2018-Jun-15 00:40N 70°28' W 102°18'0 0.0 1015.8 1.1
2018-Jun-15 00:00N 70°28' W 102°18'0 0.0 1016.1 1.7
2018-Jun-14 23:50N 70°28' W 102°18'0 0.0 1016.1 1.7
2018-Jun-14 23:30N 70°28' W 102°18'1 3.8 1016.1 1.3
2018-Jun-14 23:20N 70°28' W 102°19'0 0.0 1016.1 1.3
2018-Jun-14 23:10N 70°28' W 102°19'1 3.8 1016.3 2.1
2018-Jun-14 23:00N 70°28' W 102°18'0 0.0 1016.5 2.5
2018-Jun-14 22:20N 70°28' W 102°18'0 0.0 1016.5 2.3
2018-Jun-14 22:10N 70°28' W 102°18'0 0.0 1016.5 2.0
2018-Jun-14 21:50N 70°28' W 102°18'0 1.2 1016.5 2.3
2018-Jun-14 21:40N 70°28' W 102°17'0 0.0 1016.6 2.4
2018-Jun-14 21:30N 70°28' W 102°17'0 0.0 1016.8 2.5
2018-Jun-14 21:20N 70°28' W 102°17'0 1.2 1016.9 2.3
2018-Jun-14 21:10N 70°28' W 102°18'0 0.0 1017.0 2.0
2018-Jun-14 20:50N 70°28' W 102°18'0 0.0 1017.0 1.6
2018-Jun-14 20:40N 70°28' W 102°18'0 0.0 1017.0 1.2
2018-Jun-14 20:30N 70°28' W 102°18'0 0.0 1017.0 1.2
2018-Jun-14 20:10N 70°28' W 102°18'0 0.0 1017.0 1.9
2018-Jun-14 20:00N 70°28' W 102°18'0 0.0 1017.2 2.1
2018-Jun-14 19:50N 70°28' W 102°18'0 0.0 1017.2 2.4
2018-Jun-14 19:40N 70°28' W 102°18'0 0.0 1017.3 2.5
2018-Jun-14 19:30N 70°28' W 102°18'0 0.0 1017.3 2.5
2018-Jun-14 19:00N 70°28' W 102°18'0 0.0 1017.4 1.6
2018-Jun-14 18:50N 70°28' W 102°18'0 0.0 1017.4 1.6
2018-Jun-14 18:30N 70°28' W 102°18'0 1.2 1017.4 1.9
2018-Jun-14 18:20N 70°28' W 102°17'0 0.0 1017.4 1.9
2018-Jun-14 18:10N 70°28' W 102°17'0 0.0 1017.4 1.5
2018-Jun-14 18:00N 70°28' W 102°17'0 0.0 1017.6 1.3
2018-Jun-14 17:50N 70°28' W 102°17'0 0.4 1017.6 1.1
2018-Jun-14 17:20N 70°28' W 102°18'0 0.0 1017.6 1.3
2018-Jun-14 17:10N 70°28' W 102°18'0 0.0 1017.6 1.3
2018-Jun-14 16:50N 70°28' W 102°18'0 1.2 1017.7 1.8
2018-Jun-14 16:40N 70°28' W 102°17'0 1.2 1017.7 1.7
2018-Jun-14 16:30N 70°28' W 102°18'0 0.0 1017.8 1.6
2018-Jun-14 16:20N 70°28' W 102°18'0 0.0 1017.8
2018-Jun-14 16:10N 70°28' W 102°18'0 0.0 1017.8 1.1
2018-Jun-14 15:50N 70°28' W 102°18'0 0.0 1018.0 1.1
2018-Jun-14 15:40N 70°28' W 102°18'0 1.2 1018.1 1.3
2018-Jun-14 15:30N 70°28' W 102°19'0 0.6 1018.1 1.3
2018-Jun-14 15:10N 70°28' W 102°18'0 0.0 1018.1 0.6
2018-Jun-14 15:00N 70°28' W 102°18'0 0.0 1018.1 0.6
2018-Jun-14 14:40N 70°28' W 102°18'0 0.0 1018.3 0.3
2018-Jun-14 14:30N 70°28' W 102°18'0 0.0 1018.4 0.3
2018-Jun-14 14:00N 70°28' W 102°18'0 0.0 1018.5 0.2
2018-Jun-14 13:50N 70°28' W 102°18'0 0.3 1018.5 0.2
2018-Jun-14 13:10N 70°28' W 102°17'0 0.0 1018.8 0.2
2018-Jun-14 13:00N 70°28' W 102°17'0 1.2 1018.8 0.2
2018-Jun-14 12:50N 70°28' W 102°18'0 0.0 1018.8 -0.0
2018-Jun-14 12:10N 70°28' W 102°18'0 0.0 1018.9 -0.0
2018-Jun-14 11:30N 70°28' W 102°18'0 0.0 1019.4 -0.1
2018-Jun-14 11:20N 70°28' W 102°18'0 0.0 1019.4 -0.1
2018-Jun-14 11:10N 70°28' W 102°18'0 0.0 1019.5 -0.1
2018-Jun-14 09:40N 70°28' W 102°18'0 1.2 1019.6 0.1
2018-Jun-14 09:30N 70°28' W 102°19'0 0.2 1019.8 0.1
2018-Jun-14 08:10N 70°28' W 102°18'0 0.0 1019.9 -0.2
2018-Jun-14 08:00N 70°28' W 102°18'0 1.2 1019.9 -0.2
2018-Jun-14 07:50N 70°28' W 102°17'0 0.6 1019.9 -0.2
2018-Jun-14 07:10N 70°28' W 102°19'0 0.3 1019.8 -0.3
2018-Jun-14 06:30N 70°28' W 102°18'0 0.0 1020.0 -0.6
2018-Jun-14 06:20N 70°28' W 102°18'0 0.0 1020.0 -0.6
2018-Jun-14 05:30N 70°28' W 102°18'0 0.0 1020.2 -0.7
2018-Jun-14 05:20N 70°28' W 102°18'0 0.0 1020.2 -0.8
2018-Jun-14 05:10N 70°28' W 102°18'0 0.0 1020.3 -0.9
2018-Jun-14 04:50N 70°28' W 102°18'0 0.0 1020.2 -0.9
2018-Jun-14 04:40N 70°28' W 102°18'0 0.0 1020.2 -0.9
2018-Jun-14 03:50N 70°28' W 102°18'0 0.0 1020.0 -0.8
2018-Jun-14 03:40N 70°28' W 102°18'0 0.0 1020.0 -0.8
2018-Jun-14 03:30N 70°28' W 102°18'0 0.0 1019.9 -0.7
2018-Jun-14 03:20N 70°28' W 102°18'0 1.2 1019.9 -0.5
2018-Jun-14 03:10N 70°28' W 102°17'0 1.2 1019.8 -0.4
2018-Jun-14 03:00N 70°28' W 102°18'0 0.0 1019.8 -0.4
2018-Jun-14 02:50N 70°28' W 102°18'0 0.0 1019.9 -0.4
2018-Jun-14 02:10N 70°28' W 102°18'0 0.0 1020.0 0.3
2018-Jun-14 02:00N 70°28' W 102°18'0 0.0 1020.0 0.3
2018-Jun-14 01:50N 70°28' W 102°18'0 0.0 1020.0 0.5
2018-Jun-14 01:40N 70°28' W 102°18'0 0.0 1020.0 0.5
2018-Jun-14 01:30N 70°28' W 102°18'0 0.0 1020.2 1.0
2018-Jun-14 01:20N 70°28' W 102°18'0 0.0 1020.2 1.0
2018-Jun-14 01:10N 70°28' W 102°18'0 0.0 1020.0 1.3
2018-Jun-14 01:00N 70°28' W 102°18'1 3.8 1019.9 1.9
2018-Jun-14 00:50N 70°28' W 102°17'1 1.9 1019.9 1.9
2018-Jun-14 00:30N 70°28' W 102°18'0 0.0 1019.8 3.4
2018-Jun-14 00:20N 70°28' W 102°18'0 0.0 1019.8 3.4
2018-Jun-14 00:10N 70°28' W 102°18'0 0.0 1019.6 3.7
2018-Jun-14 00:00N 70°28' W 102°18'0 0.0 1019.6 3.7
2018-Jun-13 23:50N 70°28' W 102°18'0 0.0 1019.6 4.2
2018-Jun-13 23:40N 70°28' W 102°18'0 0.0 1019.6 4.1
2018-Jun-13 23:30N 70°28' W 102°18'0 0.6 1019.8 4.2
2018-Jun-13 23:10N 70°28' W 102°17'0 0.6 1019.8 4.1
2018-Jun-13 22:50N 70°28' W 102°18'1 3.6 1019.8 4.2
2018-Jun-13 22:40N 70°28' W 102°18'1 3.6 1019.8 4.2
2018-Jun-13 22:30N 70°28' W 102°18'0 0.0 1019.8 4.0
2018-Jun-13 22:20N 70°28' W 102°18'0 0.0 1019.8 4.0
2018-Jun-13 22:10N 70°28' W 102°18'0 0.0
2018-Jun-13 22:00N 70°28' W 102°18'0 0.0 1019.6 3.6
2018-Jun-13 21:50N 70°28' W 102°18'0 0.0 1019.6 3.6
2018-Jun-13 21:40N 70°28' W 102°18'0 0.0 1019.6 3.5
2018-Jun-13 21:30N 70°28' W 102°18'0 0.0 1019.6 3.8
2018-Jun-13 21:20N 70°28' W 102°18'0 0.0 1019.6 3.8
2018-Jun-13 21:00N 70°28' W 102°18'0 0.0 1019.6 4.0
2018-Jun-13 20:50N 70°28' W 102°18'0 0.0 1019.6 4.3
2018-Jun-13 20:40N 70°28' W 102°18'0 0.0 1019.6 4.6
2018-Jun-13 20:30N 70°28' W 102°18'0 1.2 1019.5 4.9
2018-Jun-13 20:20N 70°28' W 102°17'0 1.2 1019.4 4.7
2018-Jun-13 20:10N 70°28' W 102°18'0 0.0 1019.4 4.1
2018-Jun-13 19:50N 70°28' W 102°18'0 0.0 1019.2 3.4
2018-Jun-13 19:40N 70°28' W 102°18'0 0.0 1019.2 4.1
2018-Jun-13 19:20N 70°28' W 102°18'0 0.0 1019.1 4.1
2018-Jun-13 19:10N 70°28' W 102°18'0 0.0 1018.9 4.1
2018-Jun-13 19:00N 70°28' W 102°18'0 0.0 1018.9 4.1
2018-Jun-13 18:50N 70°28' W 102°18'0 0.0 1019.1 4.3
2018-Jun-13 18:40N 70°28' W 102°18'0 0.0 1018.9 4.0
2018-Jun-13 18:30N 70°28' W 102°18'0 0.0 1018.9 4.0
2018-Jun-13 18:10N 70°28' W 102°18'0 0.0 1018.9 2.9
2018-Jun-13 17:30N 70°28' W 102°18'0 1.2 1018.8 2.6
2018-Jun-13 17:20N 70°28' W 102°17'0 1.2 1018.7 2.2
2018-Jun-13 17:10N 70°28' W 102°18'   1018.5 2.2

Dump ship's entire track history